<?xml version="1.0" encoding="UTF-8" standalone="no" ?>
<gpx xmlns="http://www.topografix.com/GPX/1/1" xmlns:xsi="http://www.w3.org/2001/XMLSchema-instance" xsi:schemaLocation="http://www.topografix.com/GPX/1/1 http://www.topografix.com/GPX/1/1/gpx.xsd" version="1.1" creator="VisuGPX - https://www.visugpx.com">
  <metadata>
    <name>Hardangervidda 2019</name>
  </metadata>
  <trk>
    <name><![CDATA[BBBB-04-04 11:40:43]]></name>
    <trkseg>
      <trkpt lat="60.2969" lon="7.65136">
        <ele>1222.45</ele>
        <time>2019-04-04T08:22:13Z</time>
      </trkpt>
      <trkpt lat="60.2969" lon="7.65136">
        <ele>1224.38</ele>
        <time>2019-04-04T08:22:36Z</time>
      </trkpt>
      <trkpt lat="60.2969" lon="7.65136">
        <ele>1222.93</ele>
        <time>2019-04-04T08:22:39Z</time>
      </trkpt>
      <trkpt lat="60.29691" lon="7.65138">
        <ele>1222.45</ele>
        <time>2019-04-04T08:22:58Z</time>
      </trkpt>
      <trkpt lat="60.29685" lon="7.65143">
        <ele>1220.05</ele>
        <time>2019-04-04T08:23:11Z</time>
      </trkpt>
      <trkpt lat="60.29681" lon="7.65148">
        <ele>1219.57</ele>
        <time>2019-04-04T08:23:23Z</time>
      </trkpt>
      <trkpt lat="60.29674" lon="7.65154">
        <ele>1221.49</ele>
        <time>2019-04-04T08:23:34Z</time>
      </trkpt>
      <trkpt lat="60.29673" lon="7.65155">
        <ele>1219.57</ele>
        <time>2019-04-04T08:23:36Z</time>
      </trkpt>
      <trkpt lat="60.29669" lon="7.65157">
        <ele>1221.01</ele>
        <time>2019-04-04T08:23:43Z</time>
      </trkpt>
      <trkpt lat="60.29664" lon="7.65156">
        <ele>1221.01</ele>
        <time>2019-04-04T08:23:52Z</time>
      </trkpt>
      <trkpt lat="60.29664" lon="7.65151">
        <ele>1223.9</ele>
        <time>2019-04-04T08:24:01Z</time>
      </trkpt>
      <trkpt lat="60.29664" lon="7.65151">
        <ele>1220.53</ele>
        <time>2019-04-04T08:24:04Z</time>
      </trkpt>
      <trkpt lat="60.29664" lon="7.65151">
        <ele>1223.42</ele>
        <time>2019-04-04T08:24:06Z</time>
      </trkpt>
      <trkpt lat="60.29664" lon="7.65151">
        <ele>1223.42</ele>
        <time>2019-04-04T08:24:07Z</time>
      </trkpt>
      <trkpt lat="60.29664" lon="7.65151">
        <ele>1221.49</ele>
        <time>2019-04-04T08:24:09Z</time>
      </trkpt>
      <trkpt lat="60.29664" lon="7.65151">
        <ele>1223.42</ele>
        <time>2019-04-04T08:24:12Z</time>
      </trkpt>
      <trkpt lat="60.29663" lon="7.65151">
        <ele>1222.45</ele>
        <time>2019-04-04T08:24:31Z</time>
      </trkpt>
      <trkpt lat="60.29659" lon="7.65151">
        <ele>1220.53</ele>
        <time>2019-04-04T08:24:40Z</time>
      </trkpt>
      <trkpt lat="60.29658" lon="7.65145">
        <ele>1221.01</ele>
        <time>2019-04-04T08:24:49Z</time>
      </trkpt>
      <trkpt lat="60.2966" lon="7.65139">
        <ele>1221.01</ele>
        <time>2019-04-04T08:24:50Z</time>
      </trkpt>
      <trkpt lat="60.29663" lon="7.65132">
        <ele>1221.01</ele>
        <time>2019-04-04T08:24:52Z</time>
      </trkpt>
      <trkpt lat="60.29674" lon="7.65125">
        <ele>1222.93</ele>
        <time>2019-04-04T08:24:55Z</time>
      </trkpt>
      <trkpt lat="60.2969" lon="7.65109">
        <ele>1221.49</ele>
        <time>2019-04-04T08:24:58Z</time>
      </trkpt>
      <trkpt lat="60.297" lon="7.65094">
        <ele>1221.49</ele>
        <time>2019-04-04T08:25:00Z</time>
      </trkpt>
      <trkpt lat="60.29726" lon="7.65068">
        <ele>1223.42</ele>
        <time>2019-04-04T08:25:06Z</time>
      </trkpt>
      <trkpt lat="60.29745" lon="7.65044">
        <ele>1224.38</ele>
        <time>2019-04-04T08:25:10Z</time>
      </trkpt>
      <trkpt lat="60.29744" lon="7.65026">
        <ele>1220.53</ele>
        <time>2019-04-04T08:25:13Z</time>
      </trkpt>
      <trkpt lat="60.29738" lon="7.65026">
        <ele>1217.65</ele>
        <time>2019-04-04T08:25:14Z</time>
      </trkpt>
      <trkpt lat="60.29708" lon="7.65036">
        <ele>1218.61</ele>
        <time>2019-04-04T08:25:19Z</time>
      </trkpt>
      <trkpt lat="60.29696" lon="7.65048">
        <ele>1216.21</ele>
        <time>2019-04-04T08:25:21Z</time>
      </trkpt>
      <trkpt lat="60.29687" lon="7.65059">
        <ele>1218.13</ele>
        <time>2019-04-04T08:25:23Z</time>
      </trkpt>
      <trkpt lat="60.29677" lon="7.65045">
        <ele>1220.05</ele>
        <time>2019-04-04T08:25:28Z</time>
      </trkpt>
      <trkpt lat="60.29696" lon="7.65031">
        <ele>1221.97</ele>
        <time>2019-04-04T08:25:32Z</time>
      </trkpt>
      <trkpt lat="60.29718" lon="7.65022">
        <ele>1221.49</ele>
        <time>2019-04-04T08:25:36Z</time>
      </trkpt>
      <trkpt lat="60.29734" lon="7.65024">
        <ele>1222.93</ele>
        <time>2019-04-04T08:25:39Z</time>
      </trkpt>
      <trkpt lat="60.29764" lon="7.65008">
        <ele>1224.86</ele>
        <time>2019-04-04T08:25:45Z</time>
      </trkpt>
      <trkpt lat="60.29819" lon="7.64981">
        <ele>1229.18</ele>
        <time>2019-04-04T08:25:54Z</time>
      </trkpt>
      <trkpt lat="60.29834" lon="7.64974">
        <ele>1228.7</ele>
        <time>2019-04-04T08:25:56Z</time>
      </trkpt>
      <trkpt lat="60.29858" lon="7.64973">
        <ele>1232.55</ele>
        <time>2019-04-04T08:26:00Z</time>
      </trkpt>
      <trkpt lat="60.29875" lon="7.64981">
        <ele>1231.59</ele>
        <time>2019-04-04T08:26:03Z</time>
      </trkpt>
      <trkpt lat="60.29909" lon="7.64974">
        <ele>1231.59</ele>
        <time>2019-04-04T08:26:08Z</time>
      </trkpt>
      <trkpt lat="60.29984" lon="7.64955">
        <ele>1231.59</ele>
        <time>2019-04-04T08:26:16Z</time>
      </trkpt>
      <trkpt lat="60.29993" lon="7.64952">
        <ele>1231.59</ele>
        <time>2019-04-04T08:26:17Z</time>
      </trkpt>
      <trkpt lat="60.30012" lon="7.64944">
        <ele>1233.51</ele>
        <time>2019-04-04T08:26:20Z</time>
      </trkpt>
      <trkpt lat="60.3001" lon="7.64927">
        <ele>1229.66</ele>
        <time>2019-04-04T08:26:22Z</time>
      </trkpt>
      <trkpt lat="60.29992" lon="7.64916">
        <ele>1226.3</ele>
        <time>2019-04-04T08:26:25Z</time>
      </trkpt>
      <trkpt lat="60.29981" lon="7.64918">
        <ele>1225.82</ele>
        <time>2019-04-04T08:26:27Z</time>
      </trkpt>
      <trkpt lat="60.29928" lon="7.64954">
        <ele>1225.34</ele>
        <time>2019-04-04T08:26:38Z</time>
      </trkpt>
      <trkpt lat="60.2992" lon="7.6496">
        <ele>1226.3</ele>
        <time>2019-04-04T08:26:40Z</time>
      </trkpt>
      <trkpt lat="60.29888" lon="7.6498">
        <ele>1225.34</ele>
        <time>2019-04-04T08:26:48Z</time>
      </trkpt>
      <trkpt lat="60.29866" lon="7.64991">
        <ele>1225.34</ele>
        <time>2019-04-04T08:26:55Z</time>
      </trkpt>
      <trkpt lat="60.29856" lon="7.64995">
        <ele>1226.78</ele>
        <time>2019-04-04T08:26:58Z</time>
      </trkpt>
      <trkpt lat="60.29831" lon="7.65005">
        <ele>1225.82</ele>
        <time>2019-04-04T08:27:08Z</time>
      </trkpt>
      <trkpt lat="60.29822" lon="7.65011">
        <ele>1224.38</ele>
        <time>2019-04-04T08:27:10Z</time>
      </trkpt>
      <trkpt lat="60.29813" lon="7.65018">
        <ele>1225.82</ele>
        <time>2019-04-04T08:27:12Z</time>
      </trkpt>
      <trkpt lat="60.29806" lon="7.65026">
        <ele>1223.9</ele>
        <time>2019-04-04T08:27:14Z</time>
      </trkpt>
      <trkpt lat="60.29772" lon="7.65048">
        <ele>1223.9</ele>
        <time>2019-04-04T08:27:25Z</time>
      </trkpt>
      <trkpt lat="60.29771" lon="7.65048">
        <ele>1225.34</ele>
        <time>2019-04-04T08:27:28Z</time>
      </trkpt>
      <trkpt lat="60.29771" lon="7.65047">
        <ele>1223.9</ele>
        <time>2019-04-04T08:27:42Z</time>
      </trkpt>
      <trkpt lat="60.29771" lon="7.65046">
        <ele>1224.86</ele>
        <time>2019-04-04T08:27:50Z</time>
      </trkpt>
      <trkpt lat="60.29771" lon="7.65046">
        <ele>1225.34</ele>
        <time>2019-04-04T08:28:07Z</time>
      </trkpt>
      <trkpt lat="60.2977" lon="7.65045">
        <ele>1223.9</ele>
        <time>2019-04-04T08:28:28Z</time>
      </trkpt>
      <trkpt lat="60.2977" lon="7.65045">
        <ele>1223.9</ele>
        <time>2019-04-04T08:28:33Z</time>
      </trkpt>
      <trkpt lat="60.2975" lon="7.65067">
        <ele>1221.97</ele>
        <time>2019-04-04T08:28:42Z</time>
      </trkpt>
      <trkpt lat="60.29747" lon="7.65074">
        <ele>1221.01</ele>
        <time>2019-04-04T08:28:43Z</time>
      </trkpt>
      <trkpt lat="60.29735" lon="7.65092">
        <ele>1221.01</ele>
        <time>2019-04-04T08:28:47Z</time>
      </trkpt>
      <trkpt lat="60.29721" lon="7.65108">
        <ele>1222.45</ele>
        <time>2019-04-04T08:28:53Z</time>
      </trkpt>
      <trkpt lat="60.2972" lon="7.65109">
        <ele>1221.49</ele>
        <time>2019-04-04T08:29:01Z</time>
      </trkpt>
      <trkpt lat="60.2972" lon="7.65108">
        <ele>1221.97</ele>
        <time>2019-04-04T08:29:10Z</time>
      </trkpt>
      <trkpt lat="60.2972" lon="7.65108">
        <ele>1221.97</ele>
        <time>2019-04-04T08:29:20Z</time>
      </trkpt>
      <trkpt lat="60.29719" lon="7.65105">
        <ele>1223.42</ele>
        <time>2019-04-04T08:29:22Z</time>
      </trkpt>
      <trkpt lat="60.29734" lon="7.65095">
        <ele>1225.34</ele>
        <time>2019-04-04T08:29:28Z</time>
      </trkpt>
      <trkpt lat="60.2974" lon="7.65084">
        <ele>1223.9</ele>
        <time>2019-04-04T08:29:30Z</time>
      </trkpt>
      <trkpt lat="60.29764" lon="7.65058">
        <ele>1226.78</ele>
        <time>2019-04-04T08:29:36Z</time>
      </trkpt>
      <trkpt lat="60.29772" lon="7.65055">
        <ele>1227.74</ele>
        <time>2019-04-04T08:29:39Z</time>
      </trkpt>
      <trkpt lat="60.29775" lon="7.65053">
        <ele>1227.74</ele>
        <time>2019-04-04T08:29:40Z</time>
      </trkpt>
      <trkpt lat="60.29774" lon="7.65041">
        <ele>1225.34</ele>
        <time>2019-04-04T08:29:45Z</time>
      </trkpt>
      <trkpt lat="60.29772" lon="7.65041">
        <ele>1223.9</ele>
        <time>2019-04-04T08:29:58Z</time>
      </trkpt>
      <trkpt lat="60.29771" lon="7.6504">
        <ele>1224.38</ele>
        <time>2019-04-04T08:30:14Z</time>
      </trkpt>
      <trkpt lat="60.2977" lon="7.65039">
        <ele>1225.34</ele>
        <time>2019-04-04T08:30:34Z</time>
      </trkpt>
      <trkpt lat="60.2977" lon="7.6504">
        <ele>1222.93</ele>
        <time>2019-04-04T08:30:48Z</time>
      </trkpt>
      <trkpt lat="60.29769" lon="7.65041">
        <ele>1223.42</ele>
        <time>2019-04-04T08:31:08Z</time>
      </trkpt>
      <trkpt lat="60.29761" lon="7.65042">
        <ele>1224.86</ele>
        <time>2019-04-04T08:31:15Z</time>
      </trkpt>
      <trkpt lat="60.29744" lon="7.65048">
        <ele>1221.49</ele>
        <time>2019-04-04T08:31:18Z</time>
      </trkpt>
      <trkpt lat="60.29712" lon="7.65055">
        <ele>1222.45</ele>
        <time>2019-04-04T08:31:22Z</time>
      </trkpt>
      <trkpt lat="60.2969" lon="7.6507">
        <ele>1219.09</ele>
        <time>2019-04-04T08:31:25Z</time>
      </trkpt>
      <trkpt lat="60.29674" lon="7.65097">
        <ele>1220.53</ele>
        <time>2019-04-04T08:31:29Z</time>
      </trkpt>
      <trkpt lat="60.29673" lon="7.65085">
        <ele>1221.49</ele>
        <time>2019-04-04T08:31:34Z</time>
      </trkpt>
      <trkpt lat="60.29698" lon="7.65065">
        <ele>1223.42</ele>
        <time>2019-04-04T08:31:38Z</time>
      </trkpt>
      <trkpt lat="60.29734" lon="7.65031">
        <ele>1223.42</ele>
        <time>2019-04-04T08:31:48Z</time>
      </trkpt>
      <trkpt lat="60.29742" lon="7.65007">
        <ele>1223.9</ele>
        <time>2019-04-04T08:31:53Z</time>
      </trkpt>
      <trkpt lat="60.2975" lon="7.65">
        <ele>1225.82</ele>
        <time>2019-04-04T08:31:55Z</time>
      </trkpt>
      <trkpt lat="60.2976" lon="7.64994">
        <ele>1225.82</ele>
        <time>2019-04-04T08:31:57Z</time>
      </trkpt>
      <trkpt lat="60.2978" lon="7.64975">
        <ele>1227.26</ele>
        <time>2019-04-04T08:32:01Z</time>
      </trkpt>
      <trkpt lat="60.29799" lon="7.64945">
        <ele>1229.66</ele>
        <time>2019-04-04T08:32:05Z</time>
      </trkpt>
      <trkpt lat="60.29813" lon="7.64906">
        <ele>1228.22</ele>
        <time>2019-04-04T08:32:09Z</time>
      </trkpt>
      <trkpt lat="60.29823" lon="7.64893">
        <ele>1228.22</ele>
        <time>2019-04-04T08:32:11Z</time>
      </trkpt>
      <trkpt lat="60.29832" lon="7.64886">
        <ele>1228.22</ele>
        <time>2019-04-04T08:32:13Z</time>
      </trkpt>
      <trkpt lat="60.29843" lon="7.64876">
        <ele>1227.74</ele>
        <time>2019-04-04T08:32:19Z</time>
      </trkpt>
      <trkpt lat="60.29843" lon="7.64877">
        <ele>1227.74</ele>
        <time>2019-04-04T08:32:36Z</time>
      </trkpt>
      <trkpt lat="60.29843" lon="7.64879">
        <ele>1227.26</ele>
        <time>2019-04-04T08:32:58Z</time>
      </trkpt>
      <trkpt lat="60.29842" lon="7.64878">
        <ele>1227.26</ele>
        <time>2019-04-04T08:33:05Z</time>
      </trkpt>
      <trkpt lat="60.29839" lon="7.64875">
        <ele>1224.86</ele>
        <time>2019-04-04T08:33:15Z</time>
      </trkpt>
      <trkpt lat="60.2984" lon="7.64876">
        <ele>1225.34</ele>
        <time>2019-04-04T08:33:41Z</time>
      </trkpt>
      <trkpt lat="60.2984" lon="7.64877">
        <ele>1224.86</ele>
        <time>2019-04-04T08:34:01Z</time>
      </trkpt>
      <trkpt lat="60.29837" lon="7.64871">
        <ele>1226.3</ele>
        <time>2019-04-04T08:34:04Z</time>
      </trkpt>
      <trkpt lat="60.29844" lon="7.64804">
        <ele>1227.26</ele>
        <time>2019-04-04T08:34:14Z</time>
      </trkpt>
      <trkpt lat="60.29845" lon="7.64799">
        <ele>1225.34</ele>
        <time>2019-04-04T08:34:23Z</time>
      </trkpt>
      <trkpt lat="60.29845" lon="7.64797">
        <ele>1225.34</ele>
        <time>2019-04-04T08:34:25Z</time>
      </trkpt>
      <trkpt lat="60.29848" lon="7.64766">
        <ele>1221.49</ele>
        <time>2019-04-04T08:34:31Z</time>
      </trkpt>
      <trkpt lat="60.29858" lon="7.64744">
        <ele>1222.93</ele>
        <time>2019-04-04T08:34:35Z</time>
      </trkpt>
      <trkpt lat="60.29869" lon="7.6473">
        <ele>1223.9</ele>
        <time>2019-04-04T08:34:38Z</time>
      </trkpt>
      <trkpt lat="60.29889" lon="7.64697">
        <ele>1224.86</ele>
        <time>2019-04-04T08:34:43Z</time>
      </trkpt>
      <trkpt lat="60.29912" lon="7.64673">
        <ele>1226.78</ele>
        <time>2019-04-04T08:34:47Z</time>
      </trkpt>
      <trkpt lat="60.29918" lon="7.64665">
        <ele>1226.78</ele>
        <time>2019-04-04T08:34:48Z</time>
      </trkpt>
      <trkpt lat="60.2993" lon="7.64655">
        <ele>1227.74</ele>
        <time>2019-04-04T08:34:50Z</time>
      </trkpt>
      <trkpt lat="60.29946" lon="7.6463">
        <ele>1227.74</ele>
        <time>2019-04-04T08:34:53Z</time>
      </trkpt>
      <trkpt lat="60.29994" lon="7.64583">
        <ele>1230.14</ele>
        <time>2019-04-04T08:35:01Z</time>
      </trkpt>
      <trkpt lat="60.30012" lon="7.64574">
        <ele>1232.07</ele>
        <time>2019-04-04T08:35:04Z</time>
      </trkpt>
      <trkpt lat="60.30023" lon="7.6457">
        <ele>1232.55</ele>
        <time>2019-04-04T08:35:06Z</time>
      </trkpt>
      <trkpt lat="60.30044" lon="7.64545">
        <ele>1232.55</ele>
        <time>2019-04-04T08:35:11Z</time>
      </trkpt>
      <trkpt lat="60.30062" lon="7.64525">
        <ele>1230.62</ele>
        <time>2019-04-04T08:35:16Z</time>
      </trkpt>
      <trkpt lat="60.3007" lon="7.64517">
        <ele>1230.62</ele>
        <time>2019-04-04T08:35:19Z</time>
      </trkpt>
      <trkpt lat="60.30103" lon="7.64482">
        <ele>1230.62</ele>
        <time>2019-04-04T08:35:28Z</time>
      </trkpt>
      <trkpt lat="60.30108" lon="7.64475">
        <ele>1230.62</ele>
        <time>2019-04-04T08:35:29Z</time>
      </trkpt>
      <trkpt lat="60.3012" lon="7.64466">
        <ele>1230.62</ele>
        <time>2019-04-04T08:35:31Z</time>
      </trkpt>
      <trkpt lat="60.30133" lon="7.64449">
        <ele>1228.7</ele>
        <time>2019-04-04T08:35:34Z</time>
      </trkpt>
      <trkpt lat="60.30138" lon="7.64431">
        <ele>1226.78</ele>
        <time>2019-04-04T08:35:36Z</time>
      </trkpt>
      <trkpt lat="60.30133" lon="7.64403">
        <ele>1224.86</ele>
        <time>2019-04-04T08:35:40Z</time>
      </trkpt>
      <trkpt lat="60.30128" lon="7.64394">
        <ele>1226.3</ele>
        <time>2019-04-04T08:35:46Z</time>
      </trkpt>
      <trkpt lat="60.30132" lon="7.64388">
        <ele>1226.3</ele>
        <time>2019-04-04T08:35:56Z</time>
      </trkpt>
      <trkpt lat="60.30131" lon="7.64389">
        <ele>1226.3</ele>
        <time>2019-04-04T08:36:09Z</time>
      </trkpt>
      <trkpt lat="60.30126" lon="7.64386">
        <ele>1221.97</ele>
        <time>2019-04-04T08:36:11Z</time>
      </trkpt>
      <trkpt lat="60.30122" lon="7.64389">
        <ele>1221.97</ele>
        <time>2019-04-04T08:36:12Z</time>
      </trkpt>
      <trkpt lat="60.30115" lon="7.64397">
        <ele>1222.45</ele>
        <time>2019-04-04T08:36:14Z</time>
      </trkpt>
      <trkpt lat="60.30093" lon="7.64437">
        <ele>1221.97</ele>
        <time>2019-04-04T08:36:23Z</time>
      </trkpt>
      <trkpt lat="60.30084" lon="7.64447">
        <ele>1223.42</ele>
        <time>2019-04-04T08:36:26Z</time>
      </trkpt>
      <trkpt lat="60.3006" lon="7.64471">
        <ele>1223.42</ele>
        <time>2019-04-04T08:36:31Z</time>
      </trkpt>
      <trkpt lat="60.30048" lon="7.64485">
        <ele>1225.34</ele>
        <time>2019-04-04T08:36:33Z</time>
      </trkpt>
      <trkpt lat="60.30033" lon="7.64507">
        <ele>1225.34</ele>
        <time>2019-04-04T08:36:36Z</time>
      </trkpt>
      <trkpt lat="60.30023" lon="7.64521">
        <ele>1223.9</ele>
        <time>2019-04-04T08:36:38Z</time>
      </trkpt>
      <trkpt lat="60.30018" lon="7.64527">
        <ele>1223.9</ele>
        <time>2019-04-04T08:36:39Z</time>
      </trkpt>
      <trkpt lat="60.3001" lon="7.64539">
        <ele>1226.3</ele>
        <time>2019-04-04T08:36:41Z</time>
      </trkpt>
      <trkpt lat="60.30006" lon="7.64546">
        <ele>1224.86</ele>
        <time>2019-04-04T08:36:42Z</time>
      </trkpt>
      <trkpt lat="60.30004" lon="7.64528">
        <ele>1227.26</ele>
        <time>2019-04-04T08:36:46Z</time>
      </trkpt>
      <trkpt lat="60.30032" lon="7.64487">
        <ele>1229.18</ele>
        <time>2019-04-04T08:36:56Z</time>
      </trkpt>
      <trkpt lat="60.30075" lon="7.64474">
        <ele>1230.62</ele>
        <time>2019-04-04T08:37:08Z</time>
      </trkpt>
      <trkpt lat="60.30101" lon="7.64462">
        <ele>1230.62</ele>
        <time>2019-04-04T08:37:19Z</time>
      </trkpt>
      <trkpt lat="60.30104" lon="7.64461">
        <ele>1230.62</ele>
        <time>2019-04-04T08:37:21Z</time>
      </trkpt>
      <trkpt lat="60.30108" lon="7.64455">
        <ele>1229.18</ele>
        <time>2019-04-04T08:37:24Z</time>
      </trkpt>
      <trkpt lat="60.30111" lon="7.64446">
        <ele>1227.74</ele>
        <time>2019-04-04T08:37:33Z</time>
      </trkpt>
      <trkpt lat="60.30111" lon="7.64447">
        <ele>1227.26</ele>
        <time>2019-04-04T08:37:54Z</time>
      </trkpt>
      <trkpt lat="60.30124" lon="7.6443">
        <ele>1228.7</ele>
        <time>2019-04-04T08:37:59Z</time>
      </trkpt>
      <trkpt lat="60.30139" lon="7.64421">
        <ele>1229.66</ele>
        <time>2019-04-04T08:38:01Z</time>
      </trkpt>
      <trkpt lat="60.30154" lon="7.64407">
        <ele>1229.66</ele>
        <time>2019-04-04T08:38:03Z</time>
      </trkpt>
      <trkpt lat="60.30204" lon="7.64329">
        <ele>1227.74</ele>
        <time>2019-04-04T08:38:09Z</time>
      </trkpt>
      <trkpt lat="60.30218" lon="7.64297">
        <ele>1226.78</ele>
        <time>2019-04-04T08:38:11Z</time>
      </trkpt>
      <trkpt lat="60.30239" lon="7.64251">
        <ele>1226.78</ele>
        <time>2019-04-04T08:38:14Z</time>
      </trkpt>
      <trkpt lat="60.30265" lon="7.64185">
        <ele>1225.82</ele>
        <time>2019-04-04T08:38:18Z</time>
      </trkpt>
      <trkpt lat="60.30303" lon="7.64076">
        <ele>1222.93</ele>
        <time>2019-04-04T08:38:24Z</time>
      </trkpt>
      <trkpt lat="60.30309" lon="7.64058">
        <ele>1222.45</ele>
        <time>2019-04-04T08:38:25Z</time>
      </trkpt>
      <trkpt lat="60.30327" lon="7.63994">
        <ele>1222.45</ele>
        <time>2019-04-04T08:38:29Z</time>
      </trkpt>
      <trkpt lat="60.30349" lon="7.6394">
        <ele>1224.38</ele>
        <time>2019-04-04T08:38:33Z</time>
      </trkpt>
      <trkpt lat="60.30359" lon="7.63911">
        <ele>1224.38</ele>
        <time>2019-04-04T08:38:35Z</time>
      </trkpt>
      <trkpt lat="60.304" lon="7.63782">
        <ele>1225.82</ele>
        <time>2019-04-04T08:38:45Z</time>
      </trkpt>
      <trkpt lat="60.3043" lon="7.63687">
        <ele>1227.74</ele>
        <time>2019-04-04T08:38:52Z</time>
      </trkpt>
      <trkpt lat="60.30435" lon="7.63673">
        <ele>1228.7</ele>
        <time>2019-04-04T08:38:53Z</time>
      </trkpt>
      <trkpt lat="60.30438" lon="7.63657">
        <ele>1228.7</ele>
        <time>2019-04-04T08:38:54Z</time>
      </trkpt>
      <trkpt lat="60.30445" lon="7.63625">
        <ele>1229.18</ele>
        <time>2019-04-04T08:38:56Z</time>
      </trkpt>
      <trkpt lat="60.30449" lon="7.63612">
        <ele>1229.18</ele>
        <time>2019-04-04T08:38:57Z</time>
      </trkpt>
      <trkpt lat="60.3046" lon="7.6358">
        <ele>1229.18</ele>
        <time>2019-04-04T08:38:59Z</time>
      </trkpt>
      <trkpt lat="60.30518" lon="7.63446">
        <ele>1227.74</ele>
        <time>2019-04-04T08:39:08Z</time>
      </trkpt>
      <trkpt lat="60.30561" lon="7.6335">
        <ele>1227.26</ele>
        <time>2019-04-04T08:39:15Z</time>
      </trkpt>
      <trkpt lat="60.30599" lon="7.63283">
        <ele>1230.14</ele>
        <time>2019-04-04T08:39:21Z</time>
      </trkpt>
      <trkpt lat="60.30646" lon="7.63197">
        <ele>1230.62</ele>
        <time>2019-04-04T08:39:28Z</time>
      </trkpt>
      <trkpt lat="60.30666" lon="7.63156">
        <ele>1232.55</ele>
        <time>2019-04-04T08:39:31Z</time>
      </trkpt>
      <trkpt lat="60.30683" lon="7.63114">
        <ele>1232.55</ele>
        <time>2019-04-04T08:39:34Z</time>
      </trkpt>
      <trkpt lat="60.30698" lon="7.6308">
        <ele>1232.55</ele>
        <time>2019-04-04T08:39:37Z</time>
      </trkpt>
      <trkpt lat="60.30707" lon="7.63049">
        <ele>1232.55</ele>
        <time>2019-04-04T08:39:41Z</time>
      </trkpt>
      <trkpt lat="60.30721" lon="7.63009">
        <ele>1233.51</ele>
        <time>2019-04-04T08:39:51Z</time>
      </trkpt>
      <trkpt lat="60.30728" lon="7.62994">
        <ele>1233.51</ele>
        <time>2019-04-04T08:39:54Z</time>
      </trkpt>
      <trkpt lat="60.30734" lon="7.62975">
        <ele>1231.59</ele>
        <time>2019-04-04T08:39:58Z</time>
      </trkpt>
      <trkpt lat="60.30747" lon="7.62961">
        <ele>1233.51</ele>
        <time>2019-04-04T08:40:01Z</time>
      </trkpt>
      <trkpt lat="60.30799" lon="7.62917">
        <ele>1233.99</ele>
        <time>2019-04-04T08:40:08Z</time>
      </trkpt>
      <trkpt lat="60.30816" lon="7.62906">
        <ele>1235.43</ele>
        <time>2019-04-04T08:40:10Z</time>
      </trkpt>
      <trkpt lat="60.30881" lon="7.62873">
        <ele>1236.39</ele>
        <time>2019-04-04T08:40:18Z</time>
      </trkpt>
      <trkpt lat="60.30925" lon="7.62856">
        <ele>1236.39</ele>
        <time>2019-04-04T08:40:24Z</time>
      </trkpt>
      <trkpt lat="60.30964" lon="7.62846">
        <ele>1237.83</ele>
        <time>2019-04-04T08:40:30Z</time>
      </trkpt>
      <trkpt lat="60.3097" lon="7.62845">
        <ele>1237.83</ele>
        <time>2019-04-04T08:40:31Z</time>
      </trkpt>
      <trkpt lat="60.30984" lon="7.62846">
        <ele>1237.35</ele>
        <time>2019-04-04T08:40:36Z</time>
      </trkpt>
      <trkpt lat="60.31004" lon="7.62837">
        <ele>1237.35</ele>
        <time>2019-04-04T08:40:46Z</time>
      </trkpt>
      <trkpt lat="60.31023" lon="7.62797">
        <ele>1234.47</ele>
        <time>2019-04-04T08:40:53Z</time>
      </trkpt>
      <trkpt lat="60.31027" lon="7.62776">
        <ele>1233.51</ele>
        <time>2019-04-04T08:40:55Z</time>
      </trkpt>
      <trkpt lat="60.31041" lon="7.62676">
        <ele>1231.59</ele>
        <time>2019-04-04T08:41:03Z</time>
      </trkpt>
      <trkpt lat="60.31057" lon="7.62639">
        <ele>1231.59</ele>
        <time>2019-04-04T08:41:07Z</time>
      </trkpt>
      <trkpt lat="60.31056" lon="7.62624">
        <ele>1226.78</ele>
        <time>2019-04-04T08:41:10Z</time>
      </trkpt>
      <trkpt lat="60.31051" lon="7.62623">
        <ele>1225.82</ele>
        <time>2019-04-04T08:41:12Z</time>
      </trkpt>
      <trkpt lat="60.31045" lon="7.62626">
        <ele>1225.34</ele>
        <time>2019-04-04T08:41:21Z</time>
      </trkpt>
      <trkpt lat="60.31042" lon="7.62626">
        <ele>1227.26</ele>
        <time>2019-04-04T08:41:28Z</time>
      </trkpt>
      <trkpt lat="60.31041" lon="7.62626">
        <ele>1225.82</ele>
        <time>2019-04-04T08:41:33Z</time>
      </trkpt>
      <trkpt lat="60.3104" lon="7.62625">
        <ele>1225.82</ele>
        <time>2019-04-04T08:41:36Z</time>
      </trkpt>
      <trkpt lat="60.31038" lon="7.62621">
        <ele>1230.14</ele>
        <time>2019-04-04T08:41:39Z</time>
      </trkpt>
      <trkpt lat="60.31038" lon="7.62618">
        <ele>1230.14</ele>
        <time>2019-04-04T08:41:40Z</time>
      </trkpt>
      <trkpt lat="60.31041" lon="7.62608">
        <ele>1230.14</ele>
        <time>2019-04-04T08:41:43Z</time>
      </trkpt>
      <trkpt lat="60.31045" lon="7.62601">
        <ele>1231.11</ele>
        <time>2019-04-04T08:41:45Z</time>
      </trkpt>
      <trkpt lat="60.31065" lon="7.62565">
        <ele>1229.66</ele>
        <time>2019-04-04T08:41:50Z</time>
      </trkpt>
      <trkpt lat="60.31078" lon="7.62528">
        <ele>1229.66</ele>
        <time>2019-04-04T08:41:53Z</time>
      </trkpt>
      <trkpt lat="60.311" lon="7.62459">
        <ele>1228.7</ele>
        <time>2019-04-04T08:41:58Z</time>
      </trkpt>
      <trkpt lat="60.31105" lon="7.62443">
        <ele>1228.7</ele>
        <time>2019-04-04T08:41:59Z</time>
      </trkpt>
      <trkpt lat="60.31116" lon="7.62411">
        <ele>1227.74</ele>
        <time>2019-04-04T08:42:01Z</time>
      </trkpt>
      <trkpt lat="60.31129" lon="7.62357">
        <ele>1225.82</ele>
        <time>2019-04-04T08:42:04Z</time>
      </trkpt>
      <trkpt lat="60.31165" lon="7.62234">
        <ele>1221.97</ele>
        <time>2019-04-04T08:42:11Z</time>
      </trkpt>
      <trkpt lat="60.31189" lon="7.62154">
        <ele>1224.38</ele>
        <time>2019-04-04T08:42:17Z</time>
      </trkpt>
      <trkpt lat="60.312" lon="7.62111">
        <ele>1224.38</ele>
        <time>2019-04-04T08:42:20Z</time>
      </trkpt>
      <trkpt lat="60.31249" lon="7.61951">
        <ele>1221.49</ele>
        <time>2019-04-04T08:42:30Z</time>
      </trkpt>
      <trkpt lat="60.31254" lon="7.61932">
        <ele>1221.01</ele>
        <time>2019-04-04T08:42:31Z</time>
      </trkpt>
      <trkpt lat="60.31272" lon="7.61886">
        <ele>1220.53</ele>
        <time>2019-04-04T08:42:34Z</time>
      </trkpt>
      <trkpt lat="60.31294" lon="7.61808">
        <ele>1220.53</ele>
        <time>2019-04-04T08:42:40Z</time>
      </trkpt>
      <trkpt lat="60.31291" lon="7.61768">
        <ele>1220.53</ele>
        <time>2019-04-04T08:42:43Z</time>
      </trkpt>
      <trkpt lat="60.31293" lon="7.61757">
        <ele>1220.53</ele>
        <time>2019-04-04T08:42:44Z</time>
      </trkpt>
      <trkpt lat="60.31295" lon="7.61749">
        <ele>1220.53</ele>
        <time>2019-04-04T08:42:45Z</time>
      </trkpt>
      <trkpt lat="60.31299" lon="7.61742">
        <ele>1220.53</ele>
        <time>2019-04-04T08:42:46Z</time>
      </trkpt>
      <trkpt lat="60.31304" lon="7.61735">
        <ele>1221.97</ele>
        <time>2019-04-04T08:42:47Z</time>
      </trkpt>
      <trkpt lat="60.31309" lon="7.61726">
        <ele>1221.97</ele>
        <time>2019-04-04T08:42:48Z</time>
      </trkpt>
      <trkpt lat="60.31313" lon="7.61716">
        <ele>1221.97</ele>
        <time>2019-04-04T08:42:49Z</time>
      </trkpt>
      <trkpt lat="60.31317" lon="7.61703">
        <ele>1221.01</ele>
        <time>2019-04-04T08:42:50Z</time>
      </trkpt>
      <trkpt lat="60.31319" lon="7.61688">
        <ele>1219.57</ele>
        <time>2019-04-04T08:42:51Z</time>
      </trkpt>
      <trkpt lat="60.31319" lon="7.61671">
        <ele>1219.09</ele>
        <time>2019-04-04T08:42:52Z</time>
      </trkpt>
      <trkpt lat="60.31321" lon="7.61652">
        <ele>1219.09</ele>
        <time>2019-04-04T08:42:53Z</time>
      </trkpt>
      <trkpt lat="60.31345" lon="7.6156">
        <ele>1217.65</ele>
        <time>2019-04-04T08:42:58Z</time>
      </trkpt>
      <trkpt lat="60.31387" lon="7.6143">
        <ele>1214.76</ele>
        <time>2019-04-04T08:43:05Z</time>
      </trkpt>
      <trkpt lat="60.31402" lon="7.61372">
        <ele>1214.76</ele>
        <time>2019-04-04T08:43:08Z</time>
      </trkpt>
      <trkpt lat="60.3143" lon="7.61302">
        <ele>1216.21</ele>
        <time>2019-04-04T08:43:13Z</time>
      </trkpt>
      <trkpt lat="60.31476" lon="7.61219">
        <ele>1216.69</ele>
        <time>2019-04-04T08:43:22Z</time>
      </trkpt>
      <trkpt lat="60.31497" lon="7.61184">
        <ele>1217.17</ele>
        <time>2019-04-04T08:43:26Z</time>
      </trkpt>
      <trkpt lat="60.31522" lon="7.61153">
        <ele>1217.17</ele>
        <time>2019-04-04T08:43:30Z</time>
      </trkpt>
      <trkpt lat="60.31555" lon="7.61083">
        <ele>1217.65</ele>
        <time>2019-04-04T08:43:35Z</time>
      </trkpt>
      <trkpt lat="60.3158" lon="7.61038">
        <ele>1217.65</ele>
        <time>2019-04-04T08:43:39Z</time>
      </trkpt>
      <trkpt lat="60.31592" lon="7.61021">
        <ele>1217.65</ele>
        <time>2019-04-04T08:43:41Z</time>
      </trkpt>
      <trkpt lat="60.31597" lon="7.61017">
        <ele>1216.21</ele>
        <time>2019-04-04T08:43:42Z</time>
      </trkpt>
      <trkpt lat="60.316" lon="7.61015">
        <ele>1216.21</ele>
        <time>2019-04-04T08:43:43Z</time>
      </trkpt>
      <trkpt lat="60.31603" lon="7.61011">
        <ele>1215.24</ele>
        <time>2019-04-04T08:43:44Z</time>
      </trkpt>
      <trkpt lat="60.31605" lon="7.61006">
        <ele>1214.76</ele>
        <time>2019-04-04T08:43:45Z</time>
      </trkpt>
      <trkpt lat="60.31607" lon="7.61">
        <ele>1214.28</ele>
        <time>2019-04-04T08:43:46Z</time>
      </trkpt>
      <trkpt lat="60.31609" lon="7.60994">
        <ele>1214.28</ele>
        <time>2019-04-04T08:43:47Z</time>
      </trkpt>
      <trkpt lat="60.31613" lon="7.60973">
        <ele>1214.28</ele>
        <time>2019-04-04T08:43:51Z</time>
      </trkpt>
      <trkpt lat="60.31615" lon="7.6097">
        <ele>1214.28</ele>
        <time>2019-04-04T08:43:52Z</time>
      </trkpt>
      <trkpt lat="60.31616" lon="7.60968">
        <ele>1214.28</ele>
        <time>2019-04-04T08:43:53Z</time>
      </trkpt>
      <trkpt lat="60.3164" lon="7.6094">
        <ele>1214.28</ele>
        <time>2019-04-04T08:44:05Z</time>
      </trkpt>
      <trkpt lat="60.3165" lon="7.60926">
        <ele>1215.72</ele>
        <time>2019-04-04T08:44:09Z</time>
      </trkpt>
      <trkpt lat="60.31666" lon="7.60908">
        <ele>1217.17</ele>
        <time>2019-04-04T08:44:15Z</time>
      </trkpt>
      <trkpt lat="60.31667" lon="7.60907">
        <ele>1215.24</ele>
        <time>2019-04-04T08:44:20Z</time>
      </trkpt>
      <trkpt lat="60.31668" lon="7.60904">
        <ele>1215.24</ele>
        <time>2019-04-04T08:44:21Z</time>
      </trkpt>
      <trkpt lat="60.31669" lon="7.609">
        <ele>1215.24</ele>
        <time>2019-04-04T08:44:22Z</time>
      </trkpt>
      <trkpt lat="60.3167" lon="7.60895">
        <ele>1214.76</ele>
        <time>2019-04-04T08:44:23Z</time>
      </trkpt>
      <trkpt lat="60.31671" lon="7.60888">
        <ele>1214.76</ele>
        <time>2019-04-04T08:44:24Z</time>
      </trkpt>
      <trkpt lat="60.31673" lon="7.60881">
        <ele>1214.28</ele>
        <time>2019-04-04T08:44:25Z</time>
      </trkpt>
      <trkpt lat="60.31675" lon="7.60874">
        <ele>1214.28</ele>
        <time>2019-04-04T08:44:26Z</time>
      </trkpt>
      <trkpt lat="60.31677" lon="7.60869">
        <ele>1214.28</ele>
        <time>2019-04-04T08:44:27Z</time>
      </trkpt>
      <trkpt lat="60.3168" lon="7.60865">
        <ele>1214.28</ele>
        <time>2019-04-04T08:44:28Z</time>
      </trkpt>
      <trkpt lat="60.31682" lon="7.60859">
        <ele>1214.28</ele>
        <time>2019-04-04T08:44:29Z</time>
      </trkpt>
      <trkpt lat="60.31682" lon="7.60853">
        <ele>1211.4</ele>
        <time>2019-04-04T08:44:30Z</time>
      </trkpt>
      <trkpt lat="60.31693" lon="7.6081">
        <ele>1212.84</ele>
        <time>2019-04-04T08:44:37Z</time>
      </trkpt>
      <trkpt lat="60.31705" lon="7.60794">
        <ele>1213.32</ele>
        <time>2019-04-04T08:44:42Z</time>
      </trkpt>
      <trkpt lat="60.31726" lon="7.60775">
        <ele>1212.36</ele>
        <time>2019-04-04T08:44:50Z</time>
      </trkpt>
      <trkpt lat="60.31728" lon="7.60768">
        <ele>1210.44</ele>
        <time>2019-04-04T08:44:51Z</time>
      </trkpt>
      <trkpt lat="60.31728" lon="7.60761">
        <ele>1210.44</ele>
        <time>2019-04-04T08:44:52Z</time>
      </trkpt>
      <trkpt lat="60.31729" lon="7.60753">
        <ele>1210.44</ele>
        <time>2019-04-04T08:44:53Z</time>
      </trkpt>
      <trkpt lat="60.31731" lon="7.60745">
        <ele>1210.44</ele>
        <time>2019-04-04T08:44:54Z</time>
      </trkpt>
      <trkpt lat="60.31734" lon="7.60737">
        <ele>1210.44</ele>
        <time>2019-04-04T08:44:55Z</time>
      </trkpt>
      <trkpt lat="60.31739" lon="7.60731">
        <ele>1210.44</ele>
        <time>2019-04-04T08:44:56Z</time>
      </trkpt>
      <trkpt lat="60.31745" lon="7.60725">
        <ele>1210.44</ele>
        <time>2019-04-04T08:44:57Z</time>
      </trkpt>
      <trkpt lat="60.31751" lon="7.60721">
        <ele>1211.88</ele>
        <time>2019-04-04T08:44:58Z</time>
      </trkpt>
      <trkpt lat="60.31805" lon="7.60686">
        <ele>1209.48</ele>
        <time>2019-04-04T08:45:05Z</time>
      </trkpt>
      <trkpt lat="60.31812" lon="7.6068">
        <ele>1209</ele>
        <time>2019-04-04T08:45:06Z</time>
      </trkpt>
      <trkpt lat="60.31819" lon="7.60671">
        <ele>1209</ele>
        <time>2019-04-04T08:45:07Z</time>
      </trkpt>
      <trkpt lat="60.31826" lon="7.60662">
        <ele>1208.03</ele>
        <time>2019-04-04T08:45:08Z</time>
      </trkpt>
      <trkpt lat="60.31833" lon="7.6065">
        <ele>1208.03</ele>
        <time>2019-04-04T08:45:09Z</time>
      </trkpt>
      <trkpt lat="60.3184" lon="7.60638">
        <ele>1208.03</ele>
        <time>2019-04-04T08:45:10Z</time>
      </trkpt>
      <trkpt lat="60.31855" lon="7.60616">
        <ele>1208.03</ele>
        <time>2019-04-04T08:45:12Z</time>
      </trkpt>
      <trkpt lat="60.3189" lon="7.60578">
        <ele>1206.11</ele>
        <time>2019-04-04T08:45:17Z</time>
      </trkpt>
      <trkpt lat="60.31895" lon="7.60568">
        <ele>1204.19</ele>
        <time>2019-04-04T08:45:18Z</time>
      </trkpt>
      <trkpt lat="60.31897" lon="7.60556">
        <ele>1202.27</ele>
        <time>2019-04-04T08:45:19Z</time>
      </trkpt>
      <trkpt lat="60.31897" lon="7.60545">
        <ele>1202.27</ele>
        <time>2019-04-04T08:45:20Z</time>
      </trkpt>
      <trkpt lat="60.31889" lon="7.60524">
        <ele>1200.34</ele>
        <time>2019-04-04T08:45:23Z</time>
      </trkpt>
      <trkpt lat="60.31877" lon="7.60505">
        <ele>1202.27</ele>
        <time>2019-04-04T08:45:27Z</time>
      </trkpt>
      <trkpt lat="60.31875" lon="7.60497">
        <ele>1202.27</ele>
        <time>2019-04-04T08:45:28Z</time>
      </trkpt>
      <trkpt lat="60.31875" lon="7.6049">
        <ele>1202.75</ele>
        <time>2019-04-04T08:45:29Z</time>
      </trkpt>
      <trkpt lat="60.31875" lon="7.60482">
        <ele>1202.75</ele>
        <time>2019-04-04T08:45:30Z</time>
      </trkpt>
      <trkpt lat="60.31877" lon="7.60475">
        <ele>1202.75</ele>
        <time>2019-04-04T08:45:31Z</time>
      </trkpt>
      <trkpt lat="60.3188" lon="7.60469">
        <ele>1203.23</ele>
        <time>2019-04-04T08:45:32Z</time>
      </trkpt>
      <trkpt lat="60.31884" lon="7.60462">
        <ele>1203.71</ele>
        <time>2019-04-04T08:45:33Z</time>
      </trkpt>
      <trkpt lat="60.31889" lon="7.60455">
        <ele>1203.71</ele>
        <time>2019-04-04T08:45:34Z</time>
      </trkpt>
      <trkpt lat="60.31932" lon="7.60381">
        <ele>1201.3</ele>
        <time>2019-04-04T08:45:41Z</time>
      </trkpt>
      <trkpt lat="60.3196" lon="7.60322">
        <ele>1197.94</ele>
        <time>2019-04-04T08:45:45Z</time>
      </trkpt>
      <trkpt lat="60.31974" lon="7.60294">
        <ele>1196.98</ele>
        <time>2019-04-04T08:45:47Z</time>
      </trkpt>
      <trkpt lat="60.31988" lon="7.6027">
        <ele>1196.02</ele>
        <time>2019-04-04T08:45:49Z</time>
      </trkpt>
      <trkpt lat="60.31996" lon="7.60261">
        <ele>1196.02</ele>
        <time>2019-04-04T08:45:50Z</time>
      </trkpt>
      <trkpt lat="60.32002" lon="7.60253">
        <ele>1195.06</ele>
        <time>2019-04-04T08:45:51Z</time>
      </trkpt>
      <trkpt lat="60.32008" lon="7.60242">
        <ele>1194.09</ele>
        <time>2019-04-04T08:45:52Z</time>
      </trkpt>
      <trkpt lat="60.32011" lon="7.60229">
        <ele>1192.65</ele>
        <time>2019-04-04T08:45:53Z</time>
      </trkpt>
      <trkpt lat="60.32008" lon="7.60203">
        <ele>1188.81</ele>
        <time>2019-04-04T08:45:55Z</time>
      </trkpt>
      <trkpt lat="60.31988" lon="7.60165">
        <ele>1191.21</ele>
        <time>2019-04-04T08:46:00Z</time>
      </trkpt>
      <trkpt lat="60.31985" lon="7.60147">
        <ele>1192.17</ele>
        <time>2019-04-04T08:46:02Z</time>
      </trkpt>
      <trkpt lat="60.31983" lon="7.60134">
        <ele>1193.13</ele>
        <time>2019-04-04T08:46:04Z</time>
      </trkpt>
      <trkpt lat="60.31979" lon="7.6012">
        <ele>1193.61</ele>
        <time>2019-04-04T08:46:11Z</time>
      </trkpt>
      <trkpt lat="60.31978" lon="7.60117">
        <ele>1194.58</ele>
        <time>2019-04-04T08:46:21Z</time>
      </trkpt>
      <trkpt lat="60.31985" lon="7.60078">
        <ele>1196.02</ele>
        <time>2019-04-04T08:46:26Z</time>
      </trkpt>
      <trkpt lat="60.31994" lon="7.60023">
        <ele>1196.98</ele>
        <time>2019-04-04T08:46:30Z</time>
      </trkpt>
      <trkpt lat="60.32" lon="7.59999">
        <ele>1197.46</ele>
        <time>2019-04-04T08:46:32Z</time>
      </trkpt>
      <trkpt lat="60.32004" lon="7.59968">
        <ele>1197.46</ele>
        <time>2019-04-04T08:46:39Z</time>
      </trkpt>
      <trkpt lat="60.32004" lon="7.59962">
        <ele>1197.94</ele>
        <time>2019-04-04T08:46:49Z</time>
      </trkpt>
      <trkpt lat="60.32004" lon="7.5996">
        <ele>1197.94</ele>
        <time>2019-04-04T08:46:58Z</time>
      </trkpt>
      <trkpt lat="60.32002" lon="7.59952">
        <ele>1197.94</ele>
        <time>2019-04-04T08:47:10Z</time>
      </trkpt>
      <trkpt lat="60.31998" lon="7.59941">
        <ele>1196.98</ele>
        <time>2019-04-04T08:47:22Z</time>
      </trkpt>
      <trkpt lat="60.31998" lon="7.59917">
        <ele>1199.86</ele>
        <time>2019-04-04T08:47:32Z</time>
      </trkpt>
      <trkpt lat="60.31997" lon="7.59914">
        <ele>1198.42</ele>
        <time>2019-04-04T08:47:51Z</time>
      </trkpt>
      <trkpt lat="60.31995" lon="7.59877">
        <ele>1197.94</ele>
        <time>2019-04-04T08:48:00Z</time>
      </trkpt>
      <trkpt lat="60.32008" lon="7.59845">
        <ele>1199.38</ele>
        <time>2019-04-04T08:48:04Z</time>
      </trkpt>
      <trkpt lat="60.32014" lon="7.59836">
        <ele>1199.38</ele>
        <time>2019-04-04T08:48:05Z</time>
      </trkpt>
      <trkpt lat="60.32039" lon="7.59777">
        <ele>1196.5</ele>
        <time>2019-04-04T08:48:10Z</time>
      </trkpt>
      <trkpt lat="60.32036" lon="7.59734">
        <ele>1195.06</ele>
        <time>2019-04-04T08:48:13Z</time>
      </trkpt>
      <trkpt lat="60.3203" lon="7.59707">
        <ele>1195.06</ele>
        <time>2019-04-04T08:48:15Z</time>
      </trkpt>
      <trkpt lat="60.32025" lon="7.59679">
        <ele>1195.06</ele>
        <time>2019-04-04T08:48:17Z</time>
      </trkpt>
      <trkpt lat="60.32035" lon="7.59612">
        <ele>1196.5</ele>
        <time>2019-04-04T08:48:22Z</time>
      </trkpt>
      <trkpt lat="60.32039" lon="7.59581">
        <ele>1196.02</ele>
        <time>2019-04-04T08:48:24Z</time>
      </trkpt>
      <trkpt lat="60.3205" lon="7.59457">
        <ele>1192.65</ele>
        <time>2019-04-04T08:48:31Z</time>
      </trkpt>
      <trkpt lat="60.32054" lon="7.59422">
        <ele>1192.17</ele>
        <time>2019-04-04T08:48:33Z</time>
      </trkpt>
      <trkpt lat="60.32059" lon="7.59387">
        <ele>1192.17</ele>
        <time>2019-04-04T08:48:35Z</time>
      </trkpt>
      <trkpt lat="60.3207" lon="7.59311">
        <ele>1191.69</ele>
        <time>2019-04-04T08:48:39Z</time>
      </trkpt>
      <trkpt lat="60.32109" lon="7.59182">
        <ele>1190.25</ele>
        <time>2019-04-04T08:48:46Z</time>
      </trkpt>
      <trkpt lat="60.32126" lon="7.5912">
        <ele>1189.29</ele>
        <time>2019-04-04T08:48:49Z</time>
      </trkpt>
      <trkpt lat="60.32149" lon="7.59035">
        <ele>1185.44</ele>
        <time>2019-04-04T08:48:53Z</time>
      </trkpt>
      <trkpt lat="60.32155" lon="7.59016">
        <ele>1185.44</ele>
        <time>2019-04-04T08:48:54Z</time>
      </trkpt>
      <trkpt lat="60.32182" lon="7.5894">
        <ele>1184</ele>
        <time>2019-04-04T08:48:58Z</time>
      </trkpt>
      <trkpt lat="60.32225" lon="7.58854">
        <ele>1184</ele>
        <time>2019-04-04T08:49:05Z</time>
      </trkpt>
      <trkpt lat="60.32238" lon="7.58836">
        <ele>1183.52</ele>
        <time>2019-04-04T08:49:07Z</time>
      </trkpt>
      <trkpt lat="60.3225" lon="7.58816">
        <ele>1182.56</ele>
        <time>2019-04-04T08:49:09Z</time>
      </trkpt>
      <trkpt lat="60.3226" lon="7.5879">
        <ele>1181.6</ele>
        <time>2019-04-04T08:49:11Z</time>
      </trkpt>
      <trkpt lat="60.32284" lon="7.58713">
        <ele>1179.19</ele>
        <time>2019-04-04T08:49:17Z</time>
      </trkpt>
      <trkpt lat="60.32301" lon="7.5864">
        <ele>1177.75</ele>
        <time>2019-04-04T08:49:24Z</time>
      </trkpt>
      <trkpt lat="60.3232" lon="7.58565">
        <ele>1177.27</ele>
        <time>2019-04-04T08:49:32Z</time>
      </trkpt>
      <trkpt lat="60.32327" lon="7.58553">
        <ele>1178.71</ele>
        <time>2019-04-04T08:49:34Z</time>
      </trkpt>
      <trkpt lat="60.3234" lon="7.5854">
        <ele>1178.71</ele>
        <time>2019-04-04T08:49:37Z</time>
      </trkpt>
      <trkpt lat="60.32351" lon="7.58525">
        <ele>1177.27</ele>
        <time>2019-04-04T08:49:39Z</time>
      </trkpt>
      <trkpt lat="60.32358" lon="7.58516">
        <ele>1176.31</ele>
        <time>2019-04-04T08:49:40Z</time>
      </trkpt>
      <trkpt lat="60.32374" lon="7.58499">
        <ele>1175.35</ele>
        <time>2019-04-04T08:49:42Z</time>
      </trkpt>
      <trkpt lat="60.3239" lon="7.58471">
        <ele>1172.95</ele>
        <time>2019-04-04T08:49:44Z</time>
      </trkpt>
      <trkpt lat="60.32453" lon="7.58382">
        <ele>1173.43</ele>
        <time>2019-04-04T08:49:51Z</time>
      </trkpt>
      <trkpt lat="60.3248" lon="7.58353">
        <ele>1171.98</ele>
        <time>2019-04-04T08:49:54Z</time>
      </trkpt>
      <trkpt lat="60.32514" lon="7.58318">
        <ele>1171.98</ele>
        <time>2019-04-04T08:49:58Z</time>
      </trkpt>
      <trkpt lat="60.32527" lon="7.58304">
        <ele>1171.02</ele>
        <time>2019-04-04T08:50:00Z</time>
      </trkpt>
      <trkpt lat="60.3255" lon="7.58294">
        <ele>1171.98</ele>
        <time>2019-04-04T08:50:04Z</time>
      </trkpt>
      <trkpt lat="60.32557" lon="7.58296">
        <ele>1174.39</ele>
        <time>2019-04-04T08:50:06Z</time>
      </trkpt>
      <trkpt lat="60.32561" lon="7.58298">
        <ele>1175.35</ele>
        <time>2019-04-04T08:50:10Z</time>
      </trkpt>
      <trkpt lat="60.32564" lon="7.58289">
        <ele>1174.39</ele>
        <time>2019-04-04T08:50:13Z</time>
      </trkpt>
      <trkpt lat="60.32567" lon="7.58278">
        <ele>1172.47</ele>
        <time>2019-04-04T08:50:15Z</time>
      </trkpt>
      <trkpt lat="60.3258" lon="7.58217">
        <ele>1171.98</ele>
        <time>2019-04-04T08:50:27Z</time>
      </trkpt>
      <trkpt lat="60.3259" lon="7.58194">
        <ele>1170.06</ele>
        <time>2019-04-04T08:50:30Z</time>
      </trkpt>
      <trkpt lat="60.32609" lon="7.58172">
        <ele>1164.29</ele>
        <time>2019-04-04T08:50:33Z</time>
      </trkpt>
      <trkpt lat="60.32618" lon="7.58169">
        <ele>1164.29</ele>
        <time>2019-04-04T08:50:34Z</time>
      </trkpt>
      <trkpt lat="60.32626" lon="7.58166">
        <ele>1163.81</ele>
        <time>2019-04-04T08:50:35Z</time>
      </trkpt>
      <trkpt lat="60.32657" lon="7.58153">
        <ele>1166.22</ele>
        <time>2019-04-04T08:50:40Z</time>
      </trkpt>
      <trkpt lat="60.32672" lon="7.58151">
        <ele>1167.66</ele>
        <time>2019-04-04T08:50:43Z</time>
      </trkpt>
      <trkpt lat="60.32678" lon="7.5815">
        <ele>1168.14</ele>
        <time>2019-04-04T08:50:44Z</time>
      </trkpt>
      <trkpt lat="60.32688" lon="7.58147">
        <ele>1168.62</ele>
        <time>2019-04-04T08:50:46Z</time>
      </trkpt>
      <trkpt lat="60.32714" lon="7.58146">
        <ele>1170.54</ele>
        <time>2019-04-04T08:50:51Z</time>
      </trkpt>
      <trkpt lat="60.32738" lon="7.58128">
        <ele>1168.14</ele>
        <time>2019-04-04T08:50:55Z</time>
      </trkpt>
      <trkpt lat="60.3276" lon="7.58104">
        <ele>1169.58</ele>
        <time>2019-04-04T08:51:00Z</time>
      </trkpt>
      <trkpt lat="60.32788" lon="7.58091">
        <ele>1172.47</ele>
        <time>2019-04-04T08:51:06Z</time>
      </trkpt>
      <trkpt lat="60.32801" lon="7.58085">
        <ele>1172.47</ele>
        <time>2019-04-04T08:51:09Z</time>
      </trkpt>
      <trkpt lat="60.3282" lon="7.58075">
        <ele>1172.95</ele>
        <time>2019-04-04T08:51:13Z</time>
      </trkpt>
      <trkpt lat="60.32834" lon="7.58069">
        <ele>1175.35</ele>
        <time>2019-04-04T08:51:16Z</time>
      </trkpt>
      <trkpt lat="60.32856" lon="7.58068">
        <ele>1176.79</ele>
        <time>2019-04-04T08:51:20Z</time>
      </trkpt>
      <trkpt lat="60.32873" lon="7.58059">
        <ele>1177.75</ele>
        <time>2019-04-04T08:51:23Z</time>
      </trkpt>
      <trkpt lat="60.32889" lon="7.58048">
        <ele>1178.71</ele>
        <time>2019-04-04T08:51:26Z</time>
      </trkpt>
      <trkpt lat="60.32946" lon="7.58036">
        <ele>1176.79</ele>
        <time>2019-04-04T08:51:34Z</time>
      </trkpt>
      <trkpt lat="60.3297" lon="7.58028">
        <ele>1175.35</ele>
        <time>2019-04-04T08:51:37Z</time>
      </trkpt>
      <trkpt lat="60.32978" lon="7.58024">
        <ele>1175.35</ele>
        <time>2019-04-04T08:51:38Z</time>
      </trkpt>
      <trkpt lat="60.33036" lon="7.58009">
        <ele>1177.75</ele>
        <time>2019-04-04T08:51:46Z</time>
      </trkpt>
      <trkpt lat="60.33049" lon="7.58008">
        <ele>1178.23</ele>
        <time>2019-04-04T08:51:48Z</time>
      </trkpt>
      <trkpt lat="60.33075" lon="7.57992">
        <ele>1180.16</ele>
        <time>2019-04-04T08:51:52Z</time>
      </trkpt>
      <trkpt lat="60.33101" lon="7.57958">
        <ele>1182.08</ele>
        <time>2019-04-04T08:51:56Z</time>
      </trkpt>
      <trkpt lat="60.33121" lon="7.57931">
        <ele>1183.52</ele>
        <time>2019-04-04T08:51:59Z</time>
      </trkpt>
      <trkpt lat="60.33134" lon="7.57913">
        <ele>1184.96</ele>
        <time>2019-04-04T08:52:01Z</time>
      </trkpt>
      <trkpt lat="60.33146" lon="7.57895">
        <ele>1186.4</ele>
        <time>2019-04-04T08:52:03Z</time>
      </trkpt>
      <trkpt lat="60.33168" lon="7.57854">
        <ele>1187.85</ele>
        <time>2019-04-04T08:52:07Z</time>
      </trkpt>
      <trkpt lat="60.33191" lon="7.57806">
        <ele>1189.77</ele>
        <time>2019-04-04T08:52:11Z</time>
      </trkpt>
      <trkpt lat="60.33252" lon="7.57685">
        <ele>1191.69</ele>
        <time>2019-04-04T08:52:21Z</time>
      </trkpt>
      <trkpt lat="60.33296" lon="7.57601">
        <ele>1195.06</ele>
        <time>2019-04-04T08:52:29Z</time>
      </trkpt>
      <trkpt lat="60.333" lon="7.57595">
        <ele>1195.06</ele>
        <time>2019-04-04T08:52:30Z</time>
      </trkpt>
      <trkpt lat="60.33304" lon="7.57589">
        <ele>1196.5</ele>
        <time>2019-04-04T08:52:31Z</time>
      </trkpt>
      <trkpt lat="60.33338" lon="7.57546">
        <ele>1199.38</ele>
        <time>2019-04-04T08:52:38Z</time>
      </trkpt>
      <trkpt lat="60.33351" lon="7.5753">
        <ele>1200.82</ele>
        <time>2019-04-04T08:52:40Z</time>
      </trkpt>
      <trkpt lat="60.33366" lon="7.57509">
        <ele>1200.82</ele>
        <time>2019-04-04T08:52:42Z</time>
      </trkpt>
      <trkpt lat="60.3342" lon="7.57412">
        <ele>1201.79</ele>
        <time>2019-04-04T08:52:50Z</time>
      </trkpt>
      <trkpt lat="60.3346" lon="7.57325">
        <ele>1203.71</ele>
        <time>2019-04-04T08:52:58Z</time>
      </trkpt>
      <trkpt lat="60.33465" lon="7.57315">
        <ele>1204.67</ele>
        <time>2019-04-04T08:52:59Z</time>
      </trkpt>
      <trkpt lat="60.33471" lon="7.57306">
        <ele>1204.67</ele>
        <time>2019-04-04T08:53:00Z</time>
      </trkpt>
      <trkpt lat="60.33545" lon="7.57206">
        <ele>1206.59</ele>
        <time>2019-04-04T08:53:12Z</time>
      </trkpt>
      <trkpt lat="60.33598" lon="7.5714">
        <ele>1207.55</ele>
        <time>2019-04-04T08:53:21Z</time>
      </trkpt>
      <trkpt lat="60.33648" lon="7.57096">
        <ele>1208.03</ele>
        <time>2019-04-04T08:53:29Z</time>
      </trkpt>
      <trkpt lat="60.33663" lon="7.57086">
        <ele>1209.48</ele>
        <time>2019-04-04T08:53:32Z</time>
      </trkpt>
      <trkpt lat="60.33673" lon="7.57054">
        <ele>1208.51</ele>
        <time>2019-04-04T08:53:39Z</time>
      </trkpt>
      <trkpt lat="60.33688" lon="7.57013">
        <ele>1208.51</ele>
        <time>2019-04-04T08:53:50Z</time>
      </trkpt>
      <trkpt lat="60.33706" lon="7.56982">
        <ele>1209.48</ele>
        <time>2019-04-04T08:53:57Z</time>
      </trkpt>
      <trkpt lat="60.33729" lon="7.56949">
        <ele>1209.48</ele>
        <time>2019-04-04T08:54:03Z</time>
      </trkpt>
      <trkpt lat="60.33739" lon="7.56928">
        <ele>1209.48</ele>
        <time>2019-04-04T08:54:05Z</time>
      </trkpt>
      <trkpt lat="60.33758" lon="7.56895">
        <ele>1209.48</ele>
        <time>2019-04-04T08:54:08Z</time>
      </trkpt>
      <trkpt lat="60.33777" lon="7.5686">
        <ele>1208.51</ele>
        <time>2019-04-04T08:54:11Z</time>
      </trkpt>
      <trkpt lat="60.338" lon="7.56816">
        <ele>1207.07</ele>
        <time>2019-04-04T08:54:15Z</time>
      </trkpt>
      <trkpt lat="60.33826" lon="7.56789">
        <ele>1208.51</ele>
        <time>2019-04-04T08:54:19Z</time>
      </trkpt>
      <trkpt lat="60.33862" lon="7.56766">
        <ele>1205.63</ele>
        <time>2019-04-04T08:54:24Z</time>
      </trkpt>
      <trkpt lat="60.33896" lon="7.56741">
        <ele>1207.07</ele>
        <time>2019-04-04T08:54:29Z</time>
      </trkpt>
      <trkpt lat="60.33921" lon="7.56727">
        <ele>1208.51</ele>
        <time>2019-04-04T08:54:33Z</time>
      </trkpt>
      <trkpt lat="60.33983" lon="7.56679">
        <ele>1205.63</ele>
        <time>2019-04-04T08:54:41Z</time>
      </trkpt>
      <trkpt lat="60.34021" lon="7.5663">
        <ele>1202.75</ele>
        <time>2019-04-04T08:54:45Z</time>
      </trkpt>
      <trkpt lat="60.34074" lon="7.56546">
        <ele>1202.27</ele>
        <time>2019-04-04T08:54:52Z</time>
      </trkpt>
      <trkpt lat="60.34148" lon="7.56432">
        <ele>1202.75</ele>
        <time>2019-04-04T08:55:01Z</time>
      </trkpt>
      <trkpt lat="60.34242" lon="7.56274">
        <ele>1200.34</ele>
        <time>2019-04-04T08:55:13Z</time>
      </trkpt>
      <trkpt lat="60.34258" lon="7.56248">
        <ele>1199.38</ele>
        <time>2019-04-04T08:55:15Z</time>
      </trkpt>
      <trkpt lat="60.3433" lon="7.5615">
        <ele>1201.79</ele>
        <time>2019-04-04T08:55:25Z</time>
      </trkpt>
      <trkpt lat="60.34382" lon="7.56066">
        <ele>1204.67</ele>
        <time>2019-04-04T08:55:33Z</time>
      </trkpt>
      <trkpt lat="60.34401" lon="7.56041">
        <ele>1208.03</ele>
        <time>2019-04-04T08:55:36Z</time>
      </trkpt>
      <trkpt lat="60.34419" lon="7.56013">
        <ele>1213.32</ele>
        <time>2019-04-04T08:55:40Z</time>
      </trkpt>
      <trkpt lat="60.34427" lon="7.55999">
        <ele>1214.76</ele>
        <time>2019-04-04T08:55:42Z</time>
      </trkpt>
      <trkpt lat="60.3443" lon="7.55992">
        <ele>1216.21</ele>
        <time>2019-04-04T08:55:43Z</time>
      </trkpt>
      <trkpt lat="60.3444" lon="7.55975">
        <ele>1218.61</ele>
        <time>2019-04-04T08:55:46Z</time>
      </trkpt>
      <trkpt lat="60.34445" lon="7.55965">
        <ele>1220.05</ele>
        <time>2019-04-04T08:55:48Z</time>
      </trkpt>
      <trkpt lat="60.34453" lon="7.55928">
        <ele>1219.09</ele>
        <time>2019-04-04T08:55:56Z</time>
      </trkpt>
      <trkpt lat="60.34451" lon="7.55909">
        <ele>1217.17</ele>
        <time>2019-04-04T08:56:04Z</time>
      </trkpt>
      <trkpt lat="60.34451" lon="7.55906">
        <ele>1217.17</ele>
        <time>2019-04-04T08:56:06Z</time>
      </trkpt>
      <trkpt lat="60.3445" lon="7.55898">
        <ele>1216.69</ele>
        <time>2019-04-04T08:56:10Z</time>
      </trkpt>
      <trkpt lat="60.34448" lon="7.55885">
        <ele>1217.17</ele>
        <time>2019-04-04T08:56:19Z</time>
      </trkpt>
      <trkpt lat="60.34448" lon="7.55885">
        <ele>1216.21</ele>
        <time>2019-04-04T08:56:21Z</time>
      </trkpt>
      <trkpt lat="60.34446" lon="7.55884">
        <ele>1213.8</ele>
        <time>2019-04-04T08:56:25Z</time>
      </trkpt>
      <trkpt lat="60.34445" lon="7.55883">
        <ele>1214.28</ele>
        <time>2019-04-04T08:56:35Z</time>
      </trkpt>
      <trkpt lat="60.34444" lon="7.55881">
        <ele>1217.17</ele>
        <time>2019-04-04T08:56:48Z</time>
      </trkpt>
      <trkpt lat="60.34444" lon="7.55881">
        <ele>1217.17</ele>
        <time>2019-04-04T08:56:49Z</time>
      </trkpt>
      <trkpt lat="60.34443" lon="7.55881">
        <ele>1217.17</ele>
        <time>2019-04-04T08:56:52Z</time>
      </trkpt>
      <trkpt lat="60.34442" lon="7.55876">
        <ele>1215.24</ele>
        <time>2019-04-04T08:56:59Z</time>
      </trkpt>
      <trkpt lat="60.34442" lon="7.55876">
        <ele>1216.69</ele>
        <time>2019-04-04T08:57:04Z</time>
      </trkpt>
      <trkpt lat="60.34442" lon="7.55877">
        <ele>1216.69</ele>
        <time>2019-04-04T08:57:09Z</time>
      </trkpt>
      <trkpt lat="60.34441" lon="7.55875">
        <ele>1215.24</ele>
        <time>2019-04-04T08:57:11Z</time>
      </trkpt>
      <trkpt lat="60.34438" lon="7.55869">
        <ele>1216.69</ele>
        <time>2019-04-04T08:57:22Z</time>
      </trkpt>
      <trkpt lat="60.34437" lon="7.55866">
        <ele>1216.69</ele>
        <time>2019-04-04T08:57:39Z</time>
      </trkpt>
      <trkpt lat="60.34436" lon="7.55859">
        <ele>1215.72</ele>
        <time>2019-04-04T08:57:50Z</time>
      </trkpt>
      <trkpt lat="60.34435" lon="7.55851">
        <ele>1215.24</ele>
        <time>2019-04-04T08:58:00Z</time>
      </trkpt>
      <trkpt lat="60.34434" lon="7.55849">
        <ele>1215.24</ele>
        <time>2019-04-04T08:58:12Z</time>
      </trkpt>
      <trkpt lat="60.34432" lon="7.55841">
        <ele>1216.21</ele>
        <time>2019-04-04T08:58:16Z</time>
      </trkpt>
      <trkpt lat="60.34431" lon="7.55828">
        <ele>1215.24</ele>
        <time>2019-04-04T08:58:23Z</time>
      </trkpt>
      <trkpt lat="60.34445" lon="7.55795">
        <ele>1221.01</ele>
        <time>2019-04-04T08:58:28Z</time>
      </trkpt>
      <trkpt lat="60.34448" lon="7.55789">
        <ele>1221.01</ele>
        <time>2019-04-04T08:58:29Z</time>
      </trkpt>
      <trkpt lat="60.34465" lon="7.55754">
        <ele>1224.38</ele>
        <time>2019-04-04T08:58:37Z</time>
      </trkpt>
      <trkpt lat="60.34472" lon="7.55741">
        <ele>1225.34</ele>
        <time>2019-04-04T08:58:40Z</time>
      </trkpt>
      <trkpt lat="60.34474" lon="7.55735">
        <ele>1225.34</ele>
        <time>2019-04-04T08:58:41Z</time>
      </trkpt>
      <trkpt lat="60.34511" lon="7.55675">
        <ele>1228.7</ele>
        <time>2019-04-04T08:58:50Z</time>
      </trkpt>
      <trkpt lat="60.3455" lon="7.55608">
        <ele>1232.07</ele>
        <time>2019-04-04T08:59:01Z</time>
      </trkpt>
      <trkpt lat="60.3457" lon="7.55576">
        <ele>1234.95</ele>
        <time>2019-04-04T08:59:10Z</time>
      </trkpt>
      <trkpt lat="60.34571" lon="7.55572">
        <ele>1233.99</ele>
        <time>2019-04-04T08:59:22Z</time>
      </trkpt>
      <trkpt lat="60.34571" lon="7.55572">
        <ele>1233.99</ele>
        <time>2019-04-04T08:59:23Z</time>
      </trkpt>
      <trkpt lat="60.3457" lon="7.55572">
        <ele>1233.51</ele>
        <time>2019-04-04T08:59:31Z</time>
      </trkpt>
      <trkpt lat="60.34561" lon="7.55571">
        <ele>1228.7</ele>
        <time>2019-04-04T08:59:35Z</time>
      </trkpt>
      <trkpt lat="60.34554" lon="7.55577">
        <ele>1227.74</ele>
        <time>2019-04-04T08:59:37Z</time>
      </trkpt>
      <trkpt lat="60.34533" lon="7.55605">
        <ele>1223.9</ele>
        <time>2019-04-04T08:59:42Z</time>
      </trkpt>
      <trkpt lat="60.345" lon="7.55656">
        <ele>1221.01</ele>
        <time>2019-04-04T08:59:49Z</time>
      </trkpt>
      <trkpt lat="60.34489" lon="7.55669">
        <ele>1220.05</ele>
        <time>2019-04-04T08:59:51Z</time>
      </trkpt>
      <trkpt lat="60.3446" lon="7.55698">
        <ele>1217.65</ele>
        <time>2019-04-04T08:59:56Z</time>
      </trkpt>
      <trkpt lat="60.34437" lon="7.55716">
        <ele>1213.8</ele>
        <time>2019-04-04T08:59:59Z</time>
      </trkpt>
      <trkpt lat="60.34415" lon="7.55738">
        <ele>1209.96</ele>
        <time>2019-04-04T09:00:02Z</time>
      </trkpt>
      <trkpt lat="60.34408" lon="7.55743">
        <ele>1209.96</ele>
        <time>2019-04-04T09:00:03Z</time>
      </trkpt>
      <trkpt lat="60.34376" lon="7.55766">
        <ele>1207.07</ele>
        <time>2019-04-04T09:00:07Z</time>
      </trkpt>
      <trkpt lat="60.34359" lon="7.55773">
        <ele>1203.71</ele>
        <time>2019-04-04T09:00:09Z</time>
      </trkpt>
      <trkpt lat="60.34302" lon="7.55812">
        <ele>1203.23</ele>
        <time>2019-04-04T09:00:17Z</time>
      </trkpt>
      <trkpt lat="60.34296" lon="7.55815">
        <ele>1203.23</ele>
        <time>2019-04-04T09:00:18Z</time>
      </trkpt>
      <trkpt lat="60.34291" lon="7.5582">
        <ele>1203.23</ele>
        <time>2019-04-04T09:00:19Z</time>
      </trkpt>
      <trkpt lat="60.34286" lon="7.55826">
        <ele>1203.23</ele>
        <time>2019-04-04T09:00:20Z</time>
      </trkpt>
      <trkpt lat="60.3428" lon="7.55832">
        <ele>1201.3</ele>
        <time>2019-04-04T09:00:21Z</time>
      </trkpt>
      <trkpt lat="60.34275" lon="7.55839">
        <ele>1201.3</ele>
        <time>2019-04-04T09:00:22Z</time>
      </trkpt>
      <trkpt lat="60.34241" lon="7.55889">
        <ele>1197.94</ele>
        <time>2019-04-04T09:00:29Z</time>
      </trkpt>
      <trkpt lat="60.34236" lon="7.55896">
        <ele>1197.94</ele>
        <time>2019-04-04T09:00:30Z</time>
      </trkpt>
      <trkpt lat="60.34212" lon="7.55935">
        <ele>1195.54</ele>
        <time>2019-04-04T09:00:35Z</time>
      </trkpt>
      <trkpt lat="60.34207" lon="7.55942">
        <ele>1195.54</ele>
        <time>2019-04-04T09:00:36Z</time>
      </trkpt>
      <trkpt lat="60.34201" lon="7.55949">
        <ele>1195.54</ele>
        <time>2019-04-04T09:00:37Z</time>
      </trkpt>
      <trkpt lat="60.34174" lon="7.55991">
        <ele>1193.61</ele>
        <time>2019-04-04T09:00:42Z</time>
      </trkpt>
      <trkpt lat="60.34154" lon="7.56022">
        <ele>1192.17</ele>
        <time>2019-04-04T09:00:46Z</time>
      </trkpt>
      <trkpt lat="60.34137" lon="7.56039">
        <ele>1190.25</ele>
        <time>2019-04-04T09:00:49Z</time>
      </trkpt>
      <trkpt lat="60.34085" lon="7.56087">
        <ele>1188.81</ele>
        <time>2019-04-04T09:00:58Z</time>
      </trkpt>
      <trkpt lat="60.34079" lon="7.56092">
        <ele>1188.81</ele>
        <time>2019-04-04T09:00:59Z</time>
      </trkpt>
      <trkpt lat="60.34073" lon="7.56096">
        <ele>1188.81</ele>
        <time>2019-04-04T09:01:00Z</time>
      </trkpt>
      <trkpt lat="60.34067" lon="7.56102">
        <ele>1188.81</ele>
        <time>2019-04-04T09:01:01Z</time>
      </trkpt>
      <trkpt lat="60.34062" lon="7.56106">
        <ele>1188.81</ele>
        <time>2019-04-04T09:01:02Z</time>
      </trkpt>
      <trkpt lat="60.34056" lon="7.5611">
        <ele>1188.81</ele>
        <time>2019-04-04T09:01:03Z</time>
      </trkpt>
      <trkpt lat="60.34044" lon="7.56118">
        <ele>1190.25</ele>
        <time>2019-04-04T09:01:05Z</time>
      </trkpt>
      <trkpt lat="60.34039" lon="7.56123">
        <ele>1189.29</ele>
        <time>2019-04-04T09:01:06Z</time>
      </trkpt>
      <trkpt lat="60.34034" lon="7.56128">
        <ele>1189.29</ele>
        <time>2019-04-04T09:01:07Z</time>
      </trkpt>
      <trkpt lat="60.34028" lon="7.56131">
        <ele>1189.29</ele>
        <time>2019-04-04T09:01:08Z</time>
      </trkpt>
      <trkpt lat="60.34022" lon="7.56133">
        <ele>1190.25</ele>
        <time>2019-04-04T09:01:09Z</time>
      </trkpt>
      <trkpt lat="60.33987" lon="7.5616">
        <ele>1193.13</ele>
        <time>2019-04-04T09:01:16Z</time>
      </trkpt>
      <trkpt lat="60.33979" lon="7.56166">
        <ele>1194.58</ele>
        <time>2019-04-04T09:01:18Z</time>
      </trkpt>
      <trkpt lat="60.33975" lon="7.56168">
        <ele>1195.06</ele>
        <time>2019-04-04T09:01:19Z</time>
      </trkpt>
      <trkpt lat="60.33967" lon="7.56172">
        <ele>1195.06</ele>
        <time>2019-04-04T09:01:21Z</time>
      </trkpt>
      <trkpt lat="60.33962" lon="7.56174">
        <ele>1195.54</ele>
        <time>2019-04-04T09:01:22Z</time>
      </trkpt>
      <trkpt lat="60.33951" lon="7.56178">
        <ele>1196.5</ele>
        <time>2019-04-04T09:01:24Z</time>
      </trkpt>
      <trkpt lat="60.3394" lon="7.56183">
        <ele>1197.46</ele>
        <time>2019-04-04T09:01:26Z</time>
      </trkpt>
      <trkpt lat="60.33917" lon="7.56186">
        <ele>1197.94</ele>
        <time>2019-04-04T09:01:30Z</time>
      </trkpt>
      <trkpt lat="60.33901" lon="7.56186">
        <ele>1196.02</ele>
        <time>2019-04-04T09:01:33Z</time>
      </trkpt>
      <trkpt lat="60.33884" lon="7.56186">
        <ele>1195.54</ele>
        <time>2019-04-04T09:01:36Z</time>
      </trkpt>
      <trkpt lat="60.33863" lon="7.56187">
        <ele>1195.06</ele>
        <time>2019-04-04T09:01:39Z</time>
      </trkpt>
      <trkpt lat="60.33816" lon="7.56221">
        <ele>1194.09</ele>
        <time>2019-04-04T09:01:46Z</time>
      </trkpt>
      <trkpt lat="60.33803" lon="7.56231">
        <ele>1192.17</ele>
        <time>2019-04-04T09:01:48Z</time>
      </trkpt>
      <trkpt lat="60.33797" lon="7.56238">
        <ele>1192.17</ele>
        <time>2019-04-04T09:01:49Z</time>
      </trkpt>
      <trkpt lat="60.33786" lon="7.56251">
        <ele>1190.73</ele>
        <time>2019-04-04T09:01:51Z</time>
      </trkpt>
      <trkpt lat="60.3378" lon="7.56257">
        <ele>1189.29</ele>
        <time>2019-04-04T09:01:52Z</time>
      </trkpt>
      <trkpt lat="60.33774" lon="7.56262">
        <ele>1189.29</ele>
        <time>2019-04-04T09:01:53Z</time>
      </trkpt>
      <trkpt lat="60.33761" lon="7.56271">
        <ele>1190.73</ele>
        <time>2019-04-04T09:01:55Z</time>
      </trkpt>
      <trkpt lat="60.3373" lon="7.56297">
        <ele>1189.29</ele>
        <time>2019-04-04T09:02:00Z</time>
      </trkpt>
      <trkpt lat="60.33697" lon="7.56328">
        <ele>1189.29</ele>
        <time>2019-04-04T09:02:06Z</time>
      </trkpt>
      <trkpt lat="60.33692" lon="7.56332">
        <ele>1189.29</ele>
        <time>2019-04-04T09:02:07Z</time>
      </trkpt>
      <trkpt lat="60.33667" lon="7.56347">
        <ele>1185.92</ele>
        <time>2019-04-04T09:02:11Z</time>
      </trkpt>
      <trkpt lat="60.33621" lon="7.5638">
        <ele>1183.04</ele>
        <time>2019-04-04T09:02:18Z</time>
      </trkpt>
      <trkpt lat="60.33606" lon="7.56391">
        <ele>1184.48</ele>
        <time>2019-04-04T09:02:20Z</time>
      </trkpt>
      <trkpt lat="60.33598" lon="7.56397">
        <ele>1184.48</ele>
        <time>2019-04-04T09:02:21Z</time>
      </trkpt>
      <trkpt lat="60.33583" lon="7.56411">
        <ele>1181.12</ele>
        <time>2019-04-04T09:02:23Z</time>
      </trkpt>
      <trkpt lat="60.33576" lon="7.56416">
        <ele>1181.12</ele>
        <time>2019-04-04T09:02:24Z</time>
      </trkpt>
      <trkpt lat="60.33556" lon="7.56432">
        <ele>1177.27</ele>
        <time>2019-04-04T09:02:27Z</time>
      </trkpt>
      <trkpt lat="60.33549" lon="7.56436">
        <ele>1177.27</ele>
        <time>2019-04-04T09:02:28Z</time>
      </trkpt>
      <trkpt lat="60.335" lon="7.56463">
        <ele>1179.67</ele>
        <time>2019-04-04T09:02:35Z</time>
      </trkpt>
      <trkpt lat="60.33487" lon="7.56472">
        <ele>1176.79</ele>
        <time>2019-04-04T09:02:37Z</time>
      </trkpt>
      <trkpt lat="60.3344" lon="7.56496">
        <ele>1174.87</ele>
        <time>2019-04-04T09:02:44Z</time>
      </trkpt>
      <trkpt lat="60.33388" lon="7.56525">
        <ele>1174.87</ele>
        <time>2019-04-04T09:02:53Z</time>
      </trkpt>
      <trkpt lat="60.33366" lon="7.56529">
        <ele>1176.79</ele>
        <time>2019-04-04T09:02:58Z</time>
      </trkpt>
      <trkpt lat="60.33339" lon="7.56532">
        <ele>1175.83</ele>
        <time>2019-04-04T09:03:04Z</time>
      </trkpt>
      <trkpt lat="60.33288" lon="7.56573">
        <ele>1175.83</ele>
        <time>2019-04-04T09:03:15Z</time>
      </trkpt>
      <trkpt lat="60.33275" lon="7.56587">
        <ele>1175.35</ele>
        <time>2019-04-04T09:03:18Z</time>
      </trkpt>
      <trkpt lat="60.33261" lon="7.56594">
        <ele>1173.43</ele>
        <time>2019-04-04T09:03:21Z</time>
      </trkpt>
      <trkpt lat="60.3324" lon="7.56611">
        <ele>1171.98</ele>
        <time>2019-04-04T09:03:25Z</time>
      </trkpt>
      <trkpt lat="60.33224" lon="7.56624">
        <ele>1169.58</ele>
        <time>2019-04-04T09:03:28Z</time>
      </trkpt>
      <trkpt lat="60.33212" lon="7.5663">
        <ele>1169.1</ele>
        <time>2019-04-04T09:03:30Z</time>
      </trkpt>
      <trkpt lat="60.33199" lon="7.56638">
        <ele>1168.14</ele>
        <time>2019-04-04T09:03:32Z</time>
      </trkpt>
      <trkpt lat="60.33164" lon="7.5667">
        <ele>1163.81</ele>
        <time>2019-04-04T09:03:38Z</time>
      </trkpt>
      <trkpt lat="60.33158" lon="7.56676">
        <ele>1163.81</ele>
        <time>2019-04-04T09:03:39Z</time>
      </trkpt>
      <trkpt lat="60.33147" lon="7.56685">
        <ele>1159.97</ele>
        <time>2019-04-04T09:03:41Z</time>
      </trkpt>
      <trkpt lat="60.3314" lon="7.56689">
        <ele>1159.97</ele>
        <time>2019-04-04T09:03:42Z</time>
      </trkpt>
      <trkpt lat="60.33092" lon="7.56711">
        <ele>1159.01</ele>
        <time>2019-04-04T09:03:49Z</time>
      </trkpt>
      <trkpt lat="60.33065" lon="7.56733">
        <ele>1159.97</ele>
        <time>2019-04-04T09:03:54Z</time>
      </trkpt>
      <trkpt lat="60.33052" lon="7.56738">
        <ele>1164.29</ele>
        <time>2019-04-04T09:03:59Z</time>
      </trkpt>
      <trkpt lat="60.33048" lon="7.56731">
        <ele>1161.89</ele>
        <time>2019-04-04T09:04:07Z</time>
      </trkpt>
      <trkpt lat="60.33047" lon="7.56728">
        <ele>1162.37</ele>
        <time>2019-04-04T09:04:11Z</time>
      </trkpt>
      <trkpt lat="60.33056" lon="7.56728">
        <ele>1164.29</ele>
        <time>2019-04-04T09:04:17Z</time>
      </trkpt>
      <trkpt lat="60.3306" lon="7.56735">
        <ele>1164.29</ele>
        <time>2019-04-04T09:04:25Z</time>
      </trkpt>
      <trkpt lat="60.33061" lon="7.56737">
        <ele>1164.29</ele>
        <time>2019-04-04T09:04:51Z</time>
      </trkpt>
      <trkpt lat="60.33061" lon="7.56737">
        <ele>1164.29</ele>
        <time>2019-04-04T09:05:11Z</time>
      </trkpt>
      <trkpt lat="60.33057" lon="7.56731">
        <ele>1159.01</ele>
        <time>2019-04-04T09:05:15Z</time>
      </trkpt>
      <trkpt lat="60.33054" lon="7.56733">
        <ele>1160.45</ele>
        <time>2019-04-04T09:05:16Z</time>
      </trkpt>
      <trkpt lat="60.33045" lon="7.56738">
        <ele>1160.45</ele>
        <time>2019-04-04T09:05:19Z</time>
      </trkpt>
      <trkpt lat="60.33027" lon="7.56758">
        <ele>1162.37</ele>
        <time>2019-04-04T09:05:24Z</time>
      </trkpt>
      <trkpt lat="60.33012" lon="7.56779">
        <ele>1162.37</ele>
        <time>2019-04-04T09:05:29Z</time>
      </trkpt>
      <trkpt lat="60.32992" lon="7.56813">
        <ele>1160.45</ele>
        <time>2019-04-04T09:05:36Z</time>
      </trkpt>
      <trkpt lat="60.32982" lon="7.56821">
        <ele>1159.97</ele>
        <time>2019-04-04T09:05:39Z</time>
      </trkpt>
      <trkpt lat="60.32968" lon="7.56845">
        <ele>1161.41</ele>
        <time>2019-04-04T09:05:46Z</time>
      </trkpt>
      <trkpt lat="60.32965" lon="7.5684">
        <ele>1161.41</ele>
        <time>2019-04-04T09:05:48Z</time>
      </trkpt>
      <trkpt lat="60.32966" lon="7.56836">
        <ele>1161.41</ele>
        <time>2019-04-04T09:05:49Z</time>
      </trkpt>
      <trkpt lat="60.32969" lon="7.56834">
        <ele>1162.37</ele>
        <time>2019-04-04T09:05:50Z</time>
      </trkpt>
      <trkpt lat="60.32977" lon="7.56836">
        <ele>1163.81</ele>
        <time>2019-04-04T09:05:52Z</time>
      </trkpt>
      <trkpt lat="60.32993" lon="7.56842">
        <ele>1164.77</ele>
        <time>2019-04-04T09:05:58Z</time>
      </trkpt>
      <trkpt lat="60.33006" lon="7.56839">
        <ele>1165.26</ele>
        <time>2019-04-04T09:06:02Z</time>
      </trkpt>
      <trkpt lat="60.33012" lon="7.56841">
        <ele>1165.26</ele>
        <time>2019-04-04T09:06:04Z</time>
      </trkpt>
      <trkpt lat="60.33035" lon="7.56831">
        <ele>1165.74</ele>
        <time>2019-04-04T09:06:12Z</time>
      </trkpt>
      <trkpt lat="60.33063" lon="7.56825">
        <ele>1165.74</ele>
        <time>2019-04-04T09:06:18Z</time>
      </trkpt>
      <trkpt lat="60.33092" lon="7.56838">
        <ele>1166.22</ele>
        <time>2019-04-04T09:06:24Z</time>
      </trkpt>
      <trkpt lat="60.33113" lon="7.56847">
        <ele>1165.74</ele>
        <time>2019-04-04T09:06:30Z</time>
      </trkpt>
      <trkpt lat="60.33136" lon="7.56853">
        <ele>1166.7</ele>
        <time>2019-04-04T09:06:36Z</time>
      </trkpt>
      <trkpt lat="60.33162" lon="7.56853">
        <ele>1167.66</ele>
        <time>2019-04-04T09:06:43Z</time>
      </trkpt>
      <trkpt lat="60.33182" lon="7.5684">
        <ele>1169.58</ele>
        <time>2019-04-04T09:06:48Z</time>
      </trkpt>
      <trkpt lat="60.33201" lon="7.56819">
        <ele>1171.98</ele>
        <time>2019-04-04T09:06:53Z</time>
      </trkpt>
      <trkpt lat="60.33226" lon="7.56802">
        <ele>1175.35</ele>
        <time>2019-04-04T09:06:58Z</time>
      </trkpt>
      <trkpt lat="60.3324" lon="7.56793">
        <ele>1176.79</ele>
        <time>2019-04-04T09:07:01Z</time>
      </trkpt>
      <trkpt lat="60.33265" lon="7.56776">
        <ele>1178.23</ele>
        <time>2019-04-04T09:07:08Z</time>
      </trkpt>
      <trkpt lat="60.33287" lon="7.56762">
        <ele>1179.19</ele>
        <time>2019-04-04T09:07:15Z</time>
      </trkpt>
      <trkpt lat="60.33304" lon="7.56753">
        <ele>1180.64</ele>
        <time>2019-04-04T09:07:20Z</time>
      </trkpt>
      <trkpt lat="60.3332" lon="7.56735">
        <ele>1180.64</ele>
        <time>2019-04-04T09:07:24Z</time>
      </trkpt>
      <trkpt lat="60.3333" lon="7.5673">
        <ele>1181.12</ele>
        <time>2019-04-04T09:07:26Z</time>
      </trkpt>
      <trkpt lat="60.33372" lon="7.56714">
        <ele>1183.04</ele>
        <time>2019-04-04T09:07:34Z</time>
      </trkpt>
      <trkpt lat="60.33378" lon="7.56714">
        <ele>1183.52</ele>
        <time>2019-04-04T09:07:35Z</time>
      </trkpt>
      <trkpt lat="60.33406" lon="7.56715">
        <ele>1184</ele>
        <time>2019-04-04T09:07:40Z</time>
      </trkpt>
      <trkpt lat="60.33419" lon="7.56711">
        <ele>1184</ele>
        <time>2019-04-04T09:07:43Z</time>
      </trkpt>
      <trkpt lat="60.33442" lon="7.56705">
        <ele>1185.44</ele>
        <time>2019-04-04T09:07:48Z</time>
      </trkpt>
      <trkpt lat="60.33455" lon="7.56702">
        <ele>1185.44</ele>
        <time>2019-04-04T09:07:51Z</time>
      </trkpt>
      <trkpt lat="60.33465" lon="7.56702">
        <ele>1185.92</ele>
        <time>2019-04-04T09:07:53Z</time>
      </trkpt>
      <trkpt lat="60.33506" lon="7.56685">
        <ele>1187.85</ele>
        <time>2019-04-04T09:08:01Z</time>
      </trkpt>
      <trkpt lat="60.33523" lon="7.56683">
        <ele>1187.85</ele>
        <time>2019-04-04T09:08:05Z</time>
      </trkpt>
      <trkpt lat="60.33539" lon="7.56674">
        <ele>1189.29</ele>
        <time>2019-04-04T09:08:09Z</time>
      </trkpt>
      <trkpt lat="60.33546" lon="7.56671">
        <ele>1189.29</ele>
        <time>2019-04-04T09:08:11Z</time>
      </trkpt>
      <trkpt lat="60.33562" lon="7.56662">
        <ele>1189.77</ele>
        <time>2019-04-04T09:08:15Z</time>
      </trkpt>
      <trkpt lat="60.33576" lon="7.56655">
        <ele>1189.77</ele>
        <time>2019-04-04T09:08:18Z</time>
      </trkpt>
      <trkpt lat="60.33585" lon="7.56652">
        <ele>1190.73</ele>
        <time>2019-04-04T09:08:20Z</time>
      </trkpt>
      <trkpt lat="60.33603" lon="7.5664">
        <ele>1193.13</ele>
        <time>2019-04-04T09:08:24Z</time>
      </trkpt>
      <trkpt lat="60.33619" lon="7.56635">
        <ele>1195.06</ele>
        <time>2019-04-04T09:08:27Z</time>
      </trkpt>
      <trkpt lat="60.33629" lon="7.56632">
        <ele>1195.06</ele>
        <time>2019-04-04T09:08:29Z</time>
      </trkpt>
      <trkpt lat="60.3364" lon="7.56629">
        <ele>1196.02</ele>
        <time>2019-04-04T09:08:31Z</time>
      </trkpt>
      <trkpt lat="60.33661" lon="7.56621">
        <ele>1196.98</ele>
        <time>2019-04-04T09:08:35Z</time>
      </trkpt>
      <trkpt lat="60.33697" lon="7.566">
        <ele>1198.9</ele>
        <time>2019-04-04T09:08:45Z</time>
      </trkpt>
      <trkpt lat="60.33722" lon="7.56589">
        <ele>1199.86</ele>
        <time>2019-04-04T09:08:52Z</time>
      </trkpt>
      <trkpt lat="60.33749" lon="7.56581">
        <ele>1200.82</ele>
        <time>2019-04-04T09:08:59Z</time>
      </trkpt>
      <trkpt lat="60.33772" lon="7.5658">
        <ele>1201.3</ele>
        <time>2019-04-04T09:09:06Z</time>
      </trkpt>
      <trkpt lat="60.33771" lon="7.5657">
        <ele>1196.98</ele>
        <time>2019-04-04T09:09:10Z</time>
      </trkpt>
      <trkpt lat="60.33771" lon="7.56571">
        <ele>1196.98</ele>
        <time>2019-04-04T09:09:11Z</time>
      </trkpt>
      <trkpt lat="60.33771" lon="7.5657">
        <ele>1197.94</ele>
        <time>2019-04-04T09:09:16Z</time>
      </trkpt>
      <trkpt lat="60.33771" lon="7.56569">
        <ele>1196.5</ele>
        <time>2019-04-04T09:09:25Z</time>
      </trkpt>
      <trkpt lat="60.33771" lon="7.56569">
        <ele>1199.38</ele>
        <time>2019-04-04T09:09:27Z</time>
      </trkpt>
      <trkpt lat="60.33772" lon="7.56569">
        <ele>1197.94</ele>
        <time>2019-04-04T09:09:30Z</time>
      </trkpt>
      <trkpt lat="60.33772" lon="7.56567">
        <ele>1199.38</ele>
        <time>2019-04-04T09:09:52Z</time>
      </trkpt>
      <trkpt lat="60.33772" lon="7.56563">
        <ele>1200.34</ele>
        <time>2019-04-04T09:09:54Z</time>
      </trkpt>
      <trkpt lat="60.33776" lon="7.5653">
        <ele>1199.38</ele>
        <time>2019-04-04T09:10:02Z</time>
      </trkpt>
      <trkpt lat="60.33782" lon="7.56512">
        <ele>1200.34</ele>
        <time>2019-04-04T09:10:06Z</time>
      </trkpt>
      <trkpt lat="60.33786" lon="7.56512">
        <ele>1200.34</ele>
        <time>2019-04-04T09:10:07Z</time>
      </trkpt>
      <trkpt lat="60.33797" lon="7.56511">
        <ele>1201.3</ele>
        <time>2019-04-04T09:10:10Z</time>
      </trkpt>
      <trkpt lat="60.33837" lon="7.56508">
        <ele>1201.3</ele>
        <time>2019-04-04T09:10:18Z</time>
      </trkpt>
      <trkpt lat="60.33853" lon="7.56506">
        <ele>1199.86</ele>
        <time>2019-04-04T09:10:21Z</time>
      </trkpt>
      <trkpt lat="60.33874" lon="7.56496">
        <ele>1199.38</ele>
        <time>2019-04-04T09:10:25Z</time>
      </trkpt>
      <trkpt lat="60.33903" lon="7.56483">
        <ele>1199.38</ele>
        <time>2019-04-04T09:10:30Z</time>
      </trkpt>
      <trkpt lat="60.33928" lon="7.5646">
        <ele>1201.3</ele>
        <time>2019-04-04T09:10:34Z</time>
      </trkpt>
      <trkpt lat="60.33942" lon="7.56441">
        <ele>1199.86</ele>
        <time>2019-04-04T09:10:36Z</time>
      </trkpt>
      <trkpt lat="60.33964" lon="7.56417">
        <ele>1198.9</ele>
        <time>2019-04-04T09:10:39Z</time>
      </trkpt>
      <trkpt lat="60.33976" lon="7.56405">
        <ele>1201.3</ele>
        <time>2019-04-04T09:10:41Z</time>
      </trkpt>
      <trkpt lat="60.33981" lon="7.56402">
        <ele>1201.3</ele>
        <time>2019-04-04T09:10:42Z</time>
      </trkpt>
      <trkpt lat="60.34024" lon="7.56363">
        <ele>1199.86</ele>
        <time>2019-04-04T09:10:51Z</time>
      </trkpt>
      <trkpt lat="60.34048" lon="7.56345">
        <ele>1198.9</ele>
        <time>2019-04-04T09:10:55Z</time>
      </trkpt>
      <trkpt lat="60.34104" lon="7.56259">
        <ele>1197.46</ele>
        <time>2019-04-04T09:11:04Z</time>
      </trkpt>
      <trkpt lat="60.34115" lon="7.56233">
        <ele>1197.46</ele>
        <time>2019-04-04T09:11:06Z</time>
      </trkpt>
      <trkpt lat="60.34131" lon="7.56172">
        <ele>1194.09</ele>
        <time>2019-04-04T09:11:10Z</time>
      </trkpt>
      <trkpt lat="60.34142" lon="7.56127">
        <ele>1192.65</ele>
        <time>2019-04-04T09:11:13Z</time>
      </trkpt>
      <trkpt lat="60.34156" lon="7.56093">
        <ele>1194.58</ele>
        <time>2019-04-04T09:11:16Z</time>
      </trkpt>
      <trkpt lat="60.34162" lon="7.56083">
        <ele>1195.06</ele>
        <time>2019-04-04T09:11:17Z</time>
      </trkpt>
      <trkpt lat="60.3417" lon="7.56063">
        <ele>1195.06</ele>
        <time>2019-04-04T09:11:19Z</time>
      </trkpt>
      <trkpt lat="60.34178" lon="7.56046">
        <ele>1195.06</ele>
        <time>2019-04-04T09:11:21Z</time>
      </trkpt>
      <trkpt lat="60.34207" lon="7.55993">
        <ele>1197.46</ele>
        <time>2019-04-04T09:11:28Z</time>
      </trkpt>
      <trkpt lat="60.3421" lon="7.55985">
        <ele>1197.94</ele>
        <time>2019-04-04T09:11:29Z</time>
      </trkpt>
      <trkpt lat="60.34213" lon="7.55976">
        <ele>1197.94</ele>
        <time>2019-04-04T09:11:30Z</time>
      </trkpt>
      <trkpt lat="60.34217" lon="7.55968">
        <ele>1198.9</ele>
        <time>2019-04-04T09:11:31Z</time>
      </trkpt>
      <trkpt lat="60.34221" lon="7.55961">
        <ele>1199.38</ele>
        <time>2019-04-04T09:11:32Z</time>
      </trkpt>
      <trkpt lat="60.34242" lon="7.55925">
        <ele>1199.38</ele>
        <time>2019-04-04T09:11:37Z</time>
      </trkpt>
      <trkpt lat="60.34246" lon="7.55918">
        <ele>1199.86</ele>
        <time>2019-04-04T09:11:38Z</time>
      </trkpt>
      <trkpt lat="60.3425" lon="7.55911">
        <ele>1199.86</ele>
        <time>2019-04-04T09:11:39Z</time>
      </trkpt>
      <trkpt lat="60.34253" lon="7.55904">
        <ele>1200.34</ele>
        <time>2019-04-04T09:11:40Z</time>
      </trkpt>
      <trkpt lat="60.34257" lon="7.55897">
        <ele>1200.34</ele>
        <time>2019-04-04T09:11:41Z</time>
      </trkpt>
      <trkpt lat="60.34261" lon="7.5589">
        <ele>1200.34</ele>
        <time>2019-04-04T09:11:42Z</time>
      </trkpt>
      <trkpt lat="60.34269" lon="7.55878">
        <ele>1201.3</ele>
        <time>2019-04-04T09:11:44Z</time>
      </trkpt>
      <trkpt lat="60.34275" lon="7.55865">
        <ele>1202.75</ele>
        <time>2019-04-04T09:11:46Z</time>
      </trkpt>
      <trkpt lat="60.34279" lon="7.55859">
        <ele>1202.75</ele>
        <time>2019-04-04T09:11:47Z</time>
      </trkpt>
      <trkpt lat="60.34288" lon="7.55843">
        <ele>1204.19</ele>
        <time>2019-04-04T09:11:50Z</time>
      </trkpt>
      <trkpt lat="60.34291" lon="7.55837">
        <ele>1204.67</ele>
        <time>2019-04-04T09:11:51Z</time>
      </trkpt>
      <trkpt lat="60.34295" lon="7.55831">
        <ele>1205.15</ele>
        <time>2019-04-04T09:11:52Z</time>
      </trkpt>
      <trkpt lat="60.34305" lon="7.55814">
        <ele>1206.11</ele>
        <time>2019-04-04T09:11:55Z</time>
      </trkpt>
      <trkpt lat="60.34311" lon="7.558">
        <ele>1206.11</ele>
        <time>2019-04-04T09:11:57Z</time>
      </trkpt>
      <trkpt lat="60.34319" lon="7.55789">
        <ele>1206.59</ele>
        <time>2019-04-04T09:11:59Z</time>
      </trkpt>
      <trkpt lat="60.34326" lon="7.55775">
        <ele>1206.59</ele>
        <time>2019-04-04T09:12:01Z</time>
      </trkpt>
      <trkpt lat="60.3433" lon="7.5577">
        <ele>1207.55</ele>
        <time>2019-04-04T09:12:02Z</time>
      </trkpt>
      <trkpt lat="60.34336" lon="7.55766">
        <ele>1208.03</ele>
        <time>2019-04-04T09:12:03Z</time>
      </trkpt>
      <trkpt lat="60.34342" lon="7.55765">
        <ele>1208.03</ele>
        <time>2019-04-04T09:12:04Z</time>
      </trkpt>
      <trkpt lat="60.34348" lon="7.55764">
        <ele>1208.03</ele>
        <time>2019-04-04T09:12:05Z</time>
      </trkpt>
      <trkpt lat="60.34355" lon="7.55763">
        <ele>1207.55</ele>
        <time>2019-04-04T09:12:06Z</time>
      </trkpt>
      <trkpt lat="60.34362" lon="7.55762">
        <ele>1208.51</ele>
        <time>2019-04-04T09:12:07Z</time>
      </trkpt>
      <trkpt lat="60.34368" lon="7.55757">
        <ele>1209</ele>
        <time>2019-04-04T09:12:08Z</time>
      </trkpt>
      <trkpt lat="60.34374" lon="7.55749">
        <ele>1209</ele>
        <time>2019-04-04T09:12:09Z</time>
      </trkpt>
      <trkpt lat="60.34379" lon="7.55741">
        <ele>1209.48</ele>
        <time>2019-04-04T09:12:10Z</time>
      </trkpt>
      <trkpt lat="60.34385" lon="7.55736">
        <ele>1210.92</ele>
        <time>2019-04-04T09:12:11Z</time>
      </trkpt>
      <trkpt lat="60.34391" lon="7.55731">
        <ele>1210.92</ele>
        <time>2019-04-04T09:12:12Z</time>
      </trkpt>
      <trkpt lat="60.34397" lon="7.55723">
        <ele>1210.92</ele>
        <time>2019-04-04T09:12:13Z</time>
      </trkpt>
      <trkpt lat="60.34402" lon="7.55713">
        <ele>1210.92</ele>
        <time>2019-04-04T09:12:14Z</time>
      </trkpt>
      <trkpt lat="60.34408" lon="7.55703">
        <ele>1211.88</ele>
        <time>2019-04-04T09:12:15Z</time>
      </trkpt>
      <trkpt lat="60.34414" lon="7.55694">
        <ele>1213.32</ele>
        <time>2019-04-04T09:12:16Z</time>
      </trkpt>
      <trkpt lat="60.34422" lon="7.55687">
        <ele>1213.8</ele>
        <time>2019-04-04T09:12:17Z</time>
      </trkpt>
      <trkpt lat="60.34453" lon="7.5566">
        <ele>1217.17</ele>
        <time>2019-04-04T09:12:22Z</time>
      </trkpt>
      <trkpt lat="60.34457" lon="7.5565">
        <ele>1217.17</ele>
        <time>2019-04-04T09:12:23Z</time>
      </trkpt>
      <trkpt lat="60.34461" lon="7.55641">
        <ele>1217.17</ele>
        <time>2019-04-04T09:12:24Z</time>
      </trkpt>
      <trkpt lat="60.34466" lon="7.55634">
        <ele>1218.13</ele>
        <time>2019-04-04T09:12:25Z</time>
      </trkpt>
      <trkpt lat="60.3447" lon="7.55629">
        <ele>1219.57</ele>
        <time>2019-04-04T09:12:26Z</time>
      </trkpt>
      <trkpt lat="60.34475" lon="7.55623">
        <ele>1220.53</ele>
        <time>2019-04-04T09:12:27Z</time>
      </trkpt>
      <trkpt lat="60.34479" lon="7.55614">
        <ele>1221.01</ele>
        <time>2019-04-04T09:12:28Z</time>
      </trkpt>
      <trkpt lat="60.34483" lon="7.55604">
        <ele>1221.01</ele>
        <time>2019-04-04T09:12:29Z</time>
      </trkpt>
      <trkpt lat="60.34488" lon="7.55595">
        <ele>1222.45</ele>
        <time>2019-04-04T09:12:30Z</time>
      </trkpt>
      <trkpt lat="60.34494" lon="7.55587">
        <ele>1223.42</ele>
        <time>2019-04-04T09:12:31Z</time>
      </trkpt>
      <trkpt lat="60.34503" lon="7.55571">
        <ele>1224.38</ele>
        <time>2019-04-04T09:12:33Z</time>
      </trkpt>
      <trkpt lat="60.34512" lon="7.55545">
        <ele>1225.34</ele>
        <time>2019-04-04T09:12:35Z</time>
      </trkpt>
      <trkpt lat="60.34517" lon="7.55534">
        <ele>1226.78</ele>
        <time>2019-04-04T09:12:36Z</time>
      </trkpt>
      <trkpt lat="60.34522" lon="7.55525">
        <ele>1226.78</ele>
        <time>2019-04-04T09:12:37Z</time>
      </trkpt>
      <trkpt lat="60.34537" lon="7.55502">
        <ele>1229.18</ele>
        <time>2019-04-04T09:12:40Z</time>
      </trkpt>
      <trkpt lat="60.34542" lon="7.55497">
        <ele>1229.66</ele>
        <time>2019-04-04T09:12:41Z</time>
      </trkpt>
      <trkpt lat="60.34546" lon="7.5549">
        <ele>1230.14</ele>
        <time>2019-04-04T09:12:42Z</time>
      </trkpt>
      <trkpt lat="60.34551" lon="7.55483">
        <ele>1230.14</ele>
        <time>2019-04-04T09:12:43Z</time>
      </trkpt>
      <trkpt lat="60.34564" lon="7.55461">
        <ele>1230.62</ele>
        <time>2019-04-04T09:12:46Z</time>
      </trkpt>
      <trkpt lat="60.34567" lon="7.55452">
        <ele>1231.59</ele>
        <time>2019-04-04T09:12:47Z</time>
      </trkpt>
      <trkpt lat="60.3457" lon="7.55444">
        <ele>1231.59</ele>
        <time>2019-04-04T09:12:48Z</time>
      </trkpt>
      <trkpt lat="60.34583" lon="7.55417">
        <ele>1233.03</ele>
        <time>2019-04-04T09:12:52Z</time>
      </trkpt>
      <trkpt lat="60.34585" lon="7.55409">
        <ele>1232.55</ele>
        <time>2019-04-04T09:12:53Z</time>
      </trkpt>
      <trkpt lat="60.34603" lon="7.55356">
        <ele>1233.51</ele>
        <time>2019-04-04T09:12:58Z</time>
      </trkpt>
      <trkpt lat="60.34615" lon="7.55333">
        <ele>1233.99</ele>
        <time>2019-04-04T09:13:01Z</time>
      </trkpt>
      <trkpt lat="60.34622" lon="7.55312">
        <ele>1233.99</ele>
        <time>2019-04-04T09:13:03Z</time>
      </trkpt>
      <trkpt lat="60.34645" lon="7.5527">
        <ele>1234.47</ele>
        <time>2019-04-04T09:13:08Z</time>
      </trkpt>
      <trkpt lat="60.34661" lon="7.55234">
        <ele>1234.47</ele>
        <time>2019-04-04T09:13:12Z</time>
      </trkpt>
      <trkpt lat="60.34681" lon="7.55205">
        <ele>1235.43</ele>
        <time>2019-04-04T09:13:16Z</time>
      </trkpt>
      <trkpt lat="60.34692" lon="7.55189">
        <ele>1236.39</ele>
        <time>2019-04-04T09:13:19Z</time>
      </trkpt>
      <trkpt lat="60.34716" lon="7.55153">
        <ele>1236.87</ele>
        <time>2019-04-04T09:13:25Z</time>
      </trkpt>
      <trkpt lat="60.34727" lon="7.55133">
        <ele>1236.87</ele>
        <time>2019-04-04T09:13:28Z</time>
      </trkpt>
      <trkpt lat="60.3473" lon="7.55124">
        <ele>1236.87</ele>
        <time>2019-04-04T09:13:29Z</time>
      </trkpt>
      <trkpt lat="60.34733" lon="7.55117">
        <ele>1236.87</ele>
        <time>2019-04-04T09:13:30Z</time>
      </trkpt>
      <trkpt lat="60.34738" lon="7.55111">
        <ele>1236.87</ele>
        <time>2019-04-04T09:13:31Z</time>
      </trkpt>
      <trkpt lat="60.34742" lon="7.55106">
        <ele>1236.87</ele>
        <time>2019-04-04T09:13:32Z</time>
      </trkpt>
      <trkpt lat="60.34746" lon="7.551">
        <ele>1236.87</ele>
        <time>2019-04-04T09:13:33Z</time>
      </trkpt>
      <trkpt lat="60.34748" lon="7.55093">
        <ele>1236.87</ele>
        <time>2019-04-04T09:13:34Z</time>
      </trkpt>
      <trkpt lat="60.34751" lon="7.55085">
        <ele>1236.87</ele>
        <time>2019-04-04T09:13:35Z</time>
      </trkpt>
      <trkpt lat="60.34753" lon="7.55078">
        <ele>1236.87</ele>
        <time>2019-04-04T09:13:36Z</time>
      </trkpt>
      <trkpt lat="60.34757" lon="7.55072">
        <ele>1236.87</ele>
        <time>2019-04-04T09:13:37Z</time>
      </trkpt>
      <trkpt lat="60.34767" lon="7.55054">
        <ele>1236.87</ele>
        <time>2019-04-04T09:13:40Z</time>
      </trkpt>
      <trkpt lat="60.3477" lon="7.55045">
        <ele>1236.87</ele>
        <time>2019-04-04T09:13:41Z</time>
      </trkpt>
      <trkpt lat="60.34773" lon="7.55038">
        <ele>1236.87</ele>
        <time>2019-04-04T09:13:42Z</time>
      </trkpt>
      <trkpt lat="60.34777" lon="7.55032">
        <ele>1236.87</ele>
        <time>2019-04-04T09:13:43Z</time>
      </trkpt>
      <trkpt lat="60.34782" lon="7.55026">
        <ele>1236.87</ele>
        <time>2019-04-04T09:13:44Z</time>
      </trkpt>
      <trkpt lat="60.34785" lon="7.5502">
        <ele>1236.87</ele>
        <time>2019-04-04T09:13:45Z</time>
      </trkpt>
      <trkpt lat="60.34788" lon="7.55011">
        <ele>1236.87</ele>
        <time>2019-04-04T09:13:46Z</time>
      </trkpt>
      <trkpt lat="60.34791" lon="7.55002">
        <ele>1236.87</ele>
        <time>2019-04-04T09:13:47Z</time>
      </trkpt>
      <trkpt lat="60.34796" lon="7.54994">
        <ele>1236.87</ele>
        <time>2019-04-04T09:13:48Z</time>
      </trkpt>
      <trkpt lat="60.34801" lon="7.54988">
        <ele>1236.87</ele>
        <time>2019-04-04T09:13:49Z</time>
      </trkpt>
      <trkpt lat="60.34807" lon="7.54981">
        <ele>1236.87</ele>
        <time>2019-04-04T09:13:50Z</time>
      </trkpt>
      <trkpt lat="60.34813" lon="7.54974">
        <ele>1236.87</ele>
        <time>2019-04-04T09:13:51Z</time>
      </trkpt>
      <trkpt lat="60.34834" lon="7.54945">
        <ele>1235.43</ele>
        <time>2019-04-04T09:13:54Z</time>
      </trkpt>
      <trkpt lat="60.34889" lon="7.54874">
        <ele>1232.55</ele>
        <time>2019-04-04T09:14:01Z</time>
      </trkpt>
      <trkpt lat="60.34939" lon="7.54793">
        <ele>1232.07</ele>
        <time>2019-04-04T09:14:09Z</time>
      </trkpt>
      <trkpt lat="60.34944" lon="7.54781">
        <ele>1232.07</ele>
        <time>2019-04-04T09:14:10Z</time>
      </trkpt>
      <trkpt lat="60.3496" lon="7.54755">
        <ele>1232.07</ele>
        <time>2019-04-04T09:14:13Z</time>
      </trkpt>
      <trkpt lat="60.34975" lon="7.54738">
        <ele>1233.99</ele>
        <time>2019-04-04T09:14:16Z</time>
      </trkpt>
      <trkpt lat="60.3498" lon="7.5473">
        <ele>1233.99</ele>
        <time>2019-04-04T09:14:17Z</time>
      </trkpt>
      <trkpt lat="60.34983" lon="7.5472">
        <ele>1233.99</ele>
        <time>2019-04-04T09:14:18Z</time>
      </trkpt>
      <trkpt lat="60.35" lon="7.5468">
        <ele>1235.91</ele>
        <time>2019-04-04T09:14:22Z</time>
      </trkpt>
      <trkpt lat="60.35008" lon="7.54664">
        <ele>1236.87</ele>
        <time>2019-04-04T09:14:24Z</time>
      </trkpt>
      <trkpt lat="60.35012" lon="7.54655">
        <ele>1236.87</ele>
        <time>2019-04-04T09:14:25Z</time>
      </trkpt>
      <trkpt lat="60.35014" lon="7.54647">
        <ele>1236.87</ele>
        <time>2019-04-04T09:14:26Z</time>
      </trkpt>
      <trkpt lat="60.35016" lon="7.54638">
        <ele>1236.87</ele>
        <time>2019-04-04T09:14:27Z</time>
      </trkpt>
      <trkpt lat="60.35018" lon="7.54629">
        <ele>1236.87</ele>
        <time>2019-04-04T09:14:28Z</time>
      </trkpt>
      <trkpt lat="60.35023" lon="7.54613">
        <ele>1236.87</ele>
        <time>2019-04-04T09:14:30Z</time>
      </trkpt>
      <trkpt lat="60.35026" lon="7.54606">
        <ele>1237.35</ele>
        <time>2019-04-04T09:14:31Z</time>
      </trkpt>
      <trkpt lat="60.35031" lon="7.54599">
        <ele>1238.32</ele>
        <time>2019-04-04T09:14:32Z</time>
      </trkpt>
      <trkpt lat="60.35035" lon="7.5459">
        <ele>1238.32</ele>
        <time>2019-04-04T09:14:33Z</time>
      </trkpt>
      <trkpt lat="60.35039" lon="7.54579">
        <ele>1237.83</ele>
        <time>2019-04-04T09:14:34Z</time>
      </trkpt>
      <trkpt lat="60.35044" lon="7.54568">
        <ele>1237.83</ele>
        <time>2019-04-04T09:14:35Z</time>
      </trkpt>
      <trkpt lat="60.3505" lon="7.54557">
        <ele>1237.83</ele>
        <time>2019-04-04T09:14:36Z</time>
      </trkpt>
      <trkpt lat="60.35062" lon="7.54538">
        <ele>1237.83</ele>
        <time>2019-04-04T09:14:38Z</time>
      </trkpt>
      <trkpt lat="60.35067" lon="7.54528">
        <ele>1237.83</ele>
        <time>2019-04-04T09:14:39Z</time>
      </trkpt>
      <trkpt lat="60.35072" lon="7.54517">
        <ele>1237.83</ele>
        <time>2019-04-04T09:14:40Z</time>
      </trkpt>
      <trkpt lat="60.3508" lon="7.54498">
        <ele>1237.83</ele>
        <time>2019-04-04T09:14:42Z</time>
      </trkpt>
      <trkpt lat="60.35084" lon="7.54489">
        <ele>1238.32</ele>
        <time>2019-04-04T09:14:43Z</time>
      </trkpt>
      <trkpt lat="60.35087" lon="7.5448">
        <ele>1238.32</ele>
        <time>2019-04-04T09:14:44Z</time>
      </trkpt>
      <trkpt lat="60.35093" lon="7.54463">
        <ele>1238.32</ele>
        <time>2019-04-04T09:14:46Z</time>
      </trkpt>
      <trkpt lat="60.35098" lon="7.54456">
        <ele>1238.32</ele>
        <time>2019-04-04T09:14:47Z</time>
      </trkpt>
      <trkpt lat="60.35133" lon="7.54407">
        <ele>1239.28</ele>
        <time>2019-04-04T09:14:55Z</time>
      </trkpt>
      <trkpt lat="60.35154" lon="7.54387">
        <ele>1240.72</ele>
        <time>2019-04-04T09:14:59Z</time>
      </trkpt>
      <trkpt lat="60.35159" lon="7.54379">
        <ele>1240.72</ele>
        <time>2019-04-04T09:15:00Z</time>
      </trkpt>
      <trkpt lat="60.35163" lon="7.54371">
        <ele>1240.72</ele>
        <time>2019-04-04T09:15:01Z</time>
      </trkpt>
      <trkpt lat="60.35167" lon="7.54363">
        <ele>1239.28</ele>
        <time>2019-04-04T09:15:02Z</time>
      </trkpt>
      <trkpt lat="60.35174" lon="7.54346">
        <ele>1239.28</ele>
        <time>2019-04-04T09:15:04Z</time>
      </trkpt>
      <trkpt lat="60.35185" lon="7.54333">
        <ele>1239.28</ele>
        <time>2019-04-04T09:15:07Z</time>
      </trkpt>
      <trkpt lat="60.35201" lon="7.54315">
        <ele>1238.8</ele>
        <time>2019-04-04T09:15:11Z</time>
      </trkpt>
      <trkpt lat="60.35218" lon="7.54276">
        <ele>1235.91</ele>
        <time>2019-04-04T09:15:16Z</time>
      </trkpt>
      <trkpt lat="60.35222" lon="7.54266">
        <ele>1234.47</ele>
        <time>2019-04-04T09:15:17Z</time>
      </trkpt>
      <trkpt lat="60.35226" lon="7.5422">
        <ele>1231.11</ele>
        <time>2019-04-04T09:15:21Z</time>
      </trkpt>
      <trkpt lat="60.35232" lon="7.54177">
        <ele>1229.66</ele>
        <time>2019-04-04T09:15:26Z</time>
      </trkpt>
      <trkpt lat="60.35247" lon="7.54137">
        <ele>1226.3</ele>
        <time>2019-04-04T09:15:30Z</time>
      </trkpt>
      <trkpt lat="60.35259" lon="7.54109">
        <ele>1221.97</ele>
        <time>2019-04-04T09:15:34Z</time>
      </trkpt>
      <trkpt lat="60.35257" lon="7.54088">
        <ele>1221.01</ele>
        <time>2019-04-04T09:15:36Z</time>
      </trkpt>
      <trkpt lat="60.35261" lon="7.54039">
        <ele>1217.65</ele>
        <time>2019-04-04T09:15:40Z</time>
      </trkpt>
      <trkpt lat="60.35284" lon="7.53977">
        <ele>1212.84</ele>
        <time>2019-04-04T09:15:44Z</time>
      </trkpt>
      <trkpt lat="60.35301" lon="7.53941">
        <ele>1209</ele>
        <time>2019-04-04T09:15:46Z</time>
      </trkpt>
      <trkpt lat="60.35331" lon="7.53887">
        <ele>1205.15</ele>
        <time>2019-04-04T09:15:50Z</time>
      </trkpt>
      <trkpt lat="60.35356" lon="7.53847">
        <ele>1201.79</ele>
        <time>2019-04-04T09:15:53Z</time>
      </trkpt>
      <trkpt lat="60.35381" lon="7.5381">
        <ele>1199.38</ele>
        <time>2019-04-04T09:15:56Z</time>
      </trkpt>
      <trkpt lat="60.35429" lon="7.53755">
        <ele>1198.9</ele>
        <time>2019-04-04T09:16:03Z</time>
      </trkpt>
      <trkpt lat="60.35455" lon="7.53709">
        <ele>1198.42</ele>
        <time>2019-04-04T09:16:08Z</time>
      </trkpt>
      <trkpt lat="60.35463" lon="7.53699">
        <ele>1198.42</ele>
        <time>2019-04-04T09:16:09Z</time>
      </trkpt>
      <trkpt lat="60.35543" lon="7.53606">
        <ele>1196.02</ele>
        <time>2019-04-04T09:16:21Z</time>
      </trkpt>
      <trkpt lat="60.35586" lon="7.53565">
        <ele>1196.02</ele>
        <time>2019-04-04T09:16:28Z</time>
      </trkpt>
      <trkpt lat="60.35616" lon="7.53508">
        <ele>1194.58</ele>
        <time>2019-04-04T09:16:35Z</time>
      </trkpt>
      <trkpt lat="60.35617" lon="7.53498">
        <ele>1193.61</ele>
        <time>2019-04-04T09:16:37Z</time>
      </trkpt>
      <trkpt lat="60.35618" lon="7.53493">
        <ele>1195.06</ele>
        <time>2019-04-04T09:16:39Z</time>
      </trkpt>
      <trkpt lat="60.35617" lon="7.53494">
        <ele>1195.54</ele>
        <time>2019-04-04T09:16:51Z</time>
      </trkpt>
      <trkpt lat="60.35617" lon="7.53495">
        <ele>1196.02</ele>
        <time>2019-04-04T09:17:13Z</time>
      </trkpt>
      <trkpt lat="60.35617" lon="7.53493">
        <ele>1196.02</ele>
        <time>2019-04-04T09:17:31Z</time>
      </trkpt>
      <trkpt lat="60.35617" lon="7.53493">
        <ele>1194.58</ele>
        <time>2019-04-04T09:17:39Z</time>
      </trkpt>
      <trkpt lat="60.35617" lon="7.53493">
        <ele>1195.54</ele>
        <time>2019-04-04T09:17:46Z</time>
      </trkpt>
      <trkpt lat="60.35617" lon="7.53493">
        <ele>1194.58</ele>
        <time>2019-04-04T09:17:51Z</time>
      </trkpt>
      <trkpt lat="60.35615" lon="7.53486">
        <ele>1192.65</ele>
        <time>2019-04-04T09:18:02Z</time>
      </trkpt>
      <trkpt lat="60.35615" lon="7.53485">
        <ele>1192.65</ele>
        <time>2019-04-04T09:18:24Z</time>
      </trkpt>
      <trkpt lat="60.35615" lon="7.53484">
        <ele>1194.09</ele>
        <time>2019-04-04T09:18:26Z</time>
      </trkpt>
      <trkpt lat="60.35615" lon="7.53484">
        <ele>1193.13</ele>
        <time>2019-04-04T09:18:34Z</time>
      </trkpt>
      <trkpt lat="60.35613" lon="7.53459">
        <ele>1194.09</ele>
        <time>2019-04-04T09:18:37Z</time>
      </trkpt>
      <trkpt lat="60.35632" lon="7.53393">
        <ele>1196.98</ele>
        <time>2019-04-04T09:18:43Z</time>
      </trkpt>
      <trkpt lat="60.35644" lon="7.53358">
        <ele>1196.98</ele>
        <time>2019-04-04T09:18:46Z</time>
      </trkpt>
      <trkpt lat="60.35687" lon="7.53285">
        <ele>1198.42</ele>
        <time>2019-04-04T09:18:53Z</time>
      </trkpt>
      <trkpt lat="60.357" lon="7.53259">
        <ele>1196.98</ele>
        <time>2019-04-04T09:18:56Z</time>
      </trkpt>
      <trkpt lat="60.35721" lon="7.53225">
        <ele>1199.86</ele>
        <time>2019-04-04T09:19:00Z</time>
      </trkpt>
      <trkpt lat="60.35732" lon="7.53213">
        <ele>1201.3</ele>
        <time>2019-04-04T09:19:02Z</time>
      </trkpt>
      <trkpt lat="60.35749" lon="7.5319">
        <ele>1203.23</ele>
        <time>2019-04-04T09:19:06Z</time>
      </trkpt>
      <trkpt lat="60.35758" lon="7.53179">
        <ele>1204.67</ele>
        <time>2019-04-04T09:19:08Z</time>
      </trkpt>
      <trkpt lat="60.35777" lon="7.5316">
        <ele>1208.03</ele>
        <time>2019-04-04T09:19:12Z</time>
      </trkpt>
      <trkpt lat="60.3579" lon="7.5315">
        <ele>1209.48</ele>
        <time>2019-04-04T09:19:15Z</time>
      </trkpt>
      <trkpt lat="60.35809" lon="7.53133">
        <ele>1210.92</ele>
        <time>2019-04-04T09:19:19Z</time>
      </trkpt>
      <trkpt lat="60.3582" lon="7.53122">
        <ele>1211.4</ele>
        <time>2019-04-04T09:19:21Z</time>
      </trkpt>
      <trkpt lat="60.3584" lon="7.53085">
        <ele>1209.48</ele>
        <time>2019-04-04T09:19:25Z</time>
      </trkpt>
      <trkpt lat="60.35869" lon="7.53031">
        <ele>1207.07</ele>
        <time>2019-04-04T09:19:30Z</time>
      </trkpt>
      <trkpt lat="60.35895" lon="7.53">
        <ele>1205.63</ele>
        <time>2019-04-04T09:19:34Z</time>
      </trkpt>
      <trkpt lat="60.35919" lon="7.52957">
        <ele>1203.23</ele>
        <time>2019-04-04T09:19:38Z</time>
      </trkpt>
      <trkpt lat="60.35931" lon="7.52938">
        <ele>1203.23</ele>
        <time>2019-04-04T09:19:40Z</time>
      </trkpt>
      <trkpt lat="60.3595" lon="7.52922">
        <ele>1205.15</ele>
        <time>2019-04-04T09:19:43Z</time>
      </trkpt>
      <trkpt lat="60.35959" lon="7.52908">
        <ele>1204.67</ele>
        <time>2019-04-04T09:19:45Z</time>
      </trkpt>
      <trkpt lat="60.35971" lon="7.52888">
        <ele>1205.63</ele>
        <time>2019-04-04T09:19:48Z</time>
      </trkpt>
      <trkpt lat="60.36" lon="7.52841">
        <ele>1206.11</ele>
        <time>2019-04-04T09:19:54Z</time>
      </trkpt>
      <trkpt lat="60.36033" lon="7.5278">
        <ele>1208.51</ele>
        <time>2019-04-04T09:20:01Z</time>
      </trkpt>
      <trkpt lat="60.36045" lon="7.52759">
        <ele>1209.96</ele>
        <time>2019-04-04T09:20:04Z</time>
      </trkpt>
      <trkpt lat="60.3606" lon="7.52734">
        <ele>1213.8</ele>
        <time>2019-04-04T09:20:08Z</time>
      </trkpt>
      <trkpt lat="60.36065" lon="7.52733">
        <ele>1214.76</ele>
        <time>2019-04-04T09:20:09Z</time>
      </trkpt>
      <trkpt lat="60.36083" lon="7.52728">
        <ele>1214.76</ele>
        <time>2019-04-04T09:20:12Z</time>
      </trkpt>
      <trkpt lat="60.36101" lon="7.52719">
        <ele>1214.76</ele>
        <time>2019-04-04T09:20:15Z</time>
      </trkpt>
      <trkpt lat="60.36119" lon="7.52685">
        <ele>1214.76</ele>
        <time>2019-04-04T09:20:20Z</time>
      </trkpt>
      <trkpt lat="60.36134" lon="7.52655">
        <ele>1215.24</ele>
        <time>2019-04-04T09:20:24Z</time>
      </trkpt>
      <trkpt lat="60.36152" lon="7.52615">
        <ele>1215.24</ele>
        <time>2019-04-04T09:20:28Z</time>
      </trkpt>
      <trkpt lat="60.36177" lon="7.52563">
        <ele>1214.28</ele>
        <time>2019-04-04T09:20:34Z</time>
      </trkpt>
      <trkpt lat="60.36201" lon="7.52504">
        <ele>1214.28</ele>
        <time>2019-04-04T09:20:41Z</time>
      </trkpt>
      <trkpt lat="60.36227" lon="7.52454">
        <ele>1216.21</ele>
        <time>2019-04-04T09:20:47Z</time>
      </trkpt>
      <trkpt lat="60.36246" lon="7.52414">
        <ele>1217.17</ele>
        <time>2019-04-04T09:20:51Z</time>
      </trkpt>
      <trkpt lat="60.36259" lon="7.52369">
        <ele>1217.17</ele>
        <time>2019-04-04T09:20:55Z</time>
      </trkpt>
      <trkpt lat="60.36265" lon="7.52347">
        <ele>1218.61</ele>
        <time>2019-04-04T09:20:57Z</time>
      </trkpt>
      <trkpt lat="60.3627" lon="7.52325">
        <ele>1219.57</ele>
        <time>2019-04-04T09:20:59Z</time>
      </trkpt>
      <trkpt lat="60.36281" lon="7.52297">
        <ele>1221.49</ele>
        <time>2019-04-04T09:21:02Z</time>
      </trkpt>
      <trkpt lat="60.36292" lon="7.5226">
        <ele>1221.97</ele>
        <time>2019-04-04T09:21:06Z</time>
      </trkpt>
      <trkpt lat="60.36304" lon="7.5223">
        <ele>1223.42</ele>
        <time>2019-04-04T09:21:10Z</time>
      </trkpt>
      <trkpt lat="60.36327" lon="7.52185">
        <ele>1223.42</ele>
        <time>2019-04-04T09:21:15Z</time>
      </trkpt>
      <trkpt lat="60.36338" lon="7.52163">
        <ele>1223.42</ele>
        <time>2019-04-04T09:21:17Z</time>
      </trkpt>
      <trkpt lat="60.36369" lon="7.52123">
        <ele>1221.97</ele>
        <time>2019-04-04T09:21:21Z</time>
      </trkpt>
      <trkpt lat="60.3638" lon="7.52102">
        <ele>1220.53</ele>
        <time>2019-04-04T09:21:23Z</time>
      </trkpt>
      <trkpt lat="60.36392" lon="7.52075">
        <ele>1220.05</ele>
        <time>2019-04-04T09:21:26Z</time>
      </trkpt>
      <trkpt lat="60.36405" lon="7.52056">
        <ele>1221.49</ele>
        <time>2019-04-04T09:21:29Z</time>
      </trkpt>
      <trkpt lat="60.3642" lon="7.52028">
        <ele>1222.93</ele>
        <time>2019-04-04T09:21:33Z</time>
      </trkpt>
      <trkpt lat="60.36438" lon="7.5201">
        <ele>1223.42</ele>
        <time>2019-04-04T09:21:36Z</time>
      </trkpt>
      <trkpt lat="60.36476" lon="7.51982">
        <ele>1219.57</ele>
        <time>2019-04-04T09:21:41Z</time>
      </trkpt>
      <trkpt lat="60.365" lon="7.51938">
        <ele>1218.13</ele>
        <time>2019-04-04T09:21:46Z</time>
      </trkpt>
      <trkpt lat="60.36504" lon="7.51929">
        <ele>1218.13</ele>
        <time>2019-04-04T09:21:47Z</time>
      </trkpt>
      <trkpt lat="60.36512" lon="7.51891">
        <ele>1217.17</ele>
        <time>2019-04-04T09:21:51Z</time>
      </trkpt>
      <trkpt lat="60.36529" lon="7.51812">
        <ele>1217.17</ele>
        <time>2019-04-04T09:21:58Z</time>
      </trkpt>
      <trkpt lat="60.3654" lon="7.51763">
        <ele>1216.69</ele>
        <time>2019-04-04T09:22:02Z</time>
      </trkpt>
      <trkpt lat="60.36548" lon="7.51728">
        <ele>1216.69</ele>
        <time>2019-04-04T09:22:05Z</time>
      </trkpt>
      <trkpt lat="60.36554" lon="7.51711">
        <ele>1218.13</ele>
        <time>2019-04-04T09:22:07Z</time>
      </trkpt>
      <trkpt lat="60.36556" lon="7.51702">
        <ele>1218.13</ele>
        <time>2019-04-04T09:22:08Z</time>
      </trkpt>
      <trkpt lat="60.36564" lon="7.51679">
        <ele>1219.57</ele>
        <time>2019-04-04T09:22:11Z</time>
      </trkpt>
      <trkpt lat="60.3657" lon="7.51666">
        <ele>1219.57</ele>
        <time>2019-04-04T09:22:13Z</time>
      </trkpt>
      <trkpt lat="60.36575" lon="7.51642">
        <ele>1219.57</ele>
        <time>2019-04-04T09:22:16Z</time>
      </trkpt>
      <trkpt lat="60.36583" lon="7.51618">
        <ele>1220.53</ele>
        <time>2019-04-04T09:22:19Z</time>
      </trkpt>
      <trkpt lat="60.3659" lon="7.51593">
        <ele>1220.53</ele>
        <time>2019-04-04T09:22:22Z</time>
      </trkpt>
      <trkpt lat="60.36599" lon="7.51564">
        <ele>1220.53</ele>
        <time>2019-04-04T09:22:25Z</time>
      </trkpt>
      <trkpt lat="60.36614" lon="7.51509">
        <ele>1220.53</ele>
        <time>2019-04-04T09:22:31Z</time>
      </trkpt>
      <trkpt lat="60.36619" lon="7.51491">
        <ele>1220.53</ele>
        <time>2019-04-04T09:22:33Z</time>
      </trkpt>
      <trkpt lat="60.36625" lon="7.51461">
        <ele>1219.09</ele>
        <time>2019-04-04T09:22:36Z</time>
      </trkpt>
      <trkpt lat="60.36633" lon="7.51422">
        <ele>1219.09</ele>
        <time>2019-04-04T09:22:40Z</time>
      </trkpt>
      <trkpt lat="60.36636" lon="7.51402">
        <ele>1218.61</ele>
        <time>2019-04-04T09:22:42Z</time>
      </trkpt>
      <trkpt lat="60.36646" lon="7.5137">
        <ele>1218.61</ele>
        <time>2019-04-04T09:22:46Z</time>
      </trkpt>
      <trkpt lat="60.36657" lon="7.51335">
        <ele>1218.61</ele>
        <time>2019-04-04T09:22:51Z</time>
      </trkpt>
      <trkpt lat="60.3667" lon="7.51291">
        <ele>1221.01</ele>
        <time>2019-04-04T09:22:57Z</time>
      </trkpt>
      <trkpt lat="60.36675" lon="7.51264">
        <ele>1221.01</ele>
        <time>2019-04-04T09:23:00Z</time>
      </trkpt>
      <trkpt lat="60.36678" lon="7.51243">
        <ele>1221.01</ele>
        <time>2019-04-04T09:23:02Z</time>
      </trkpt>
      <trkpt lat="60.36688" lon="7.5118">
        <ele>1222.93</ele>
        <time>2019-04-04T09:23:08Z</time>
      </trkpt>
      <trkpt lat="60.36695" lon="7.51147">
        <ele>1224.38</ele>
        <time>2019-04-04T09:23:12Z</time>
      </trkpt>
      <trkpt lat="60.36704" lon="7.51087">
        <ele>1226.3</ele>
        <time>2019-04-04T09:23:19Z</time>
      </trkpt>
      <trkpt lat="60.367" lon="7.51041">
        <ele>1226.3</ele>
        <time>2019-04-04T09:23:24Z</time>
      </trkpt>
      <trkpt lat="60.36696" lon="7.51033">
        <ele>1224.86</ele>
        <time>2019-04-04T09:23:25Z</time>
      </trkpt>
      <trkpt lat="60.3669" lon="7.50997">
        <ele>1221.01</ele>
        <time>2019-04-04T09:23:29Z</time>
      </trkpt>
      <trkpt lat="60.36691" lon="7.50986">
        <ele>1226.3</ele>
        <time>2019-04-04T09:23:30Z</time>
      </trkpt>
      <trkpt lat="60.36693" lon="7.50974">
        <ele>1226.3</ele>
        <time>2019-04-04T09:23:31Z</time>
      </trkpt>
      <trkpt lat="60.36693" lon="7.50963">
        <ele>1226.3</ele>
        <time>2019-04-04T09:23:32Z</time>
      </trkpt>
      <trkpt lat="60.367" lon="7.50936">
        <ele>1227.26</ele>
        <time>2019-04-04T09:23:35Z</time>
      </trkpt>
      <trkpt lat="60.36709" lon="7.50885">
        <ele>1226.78</ele>
        <time>2019-04-04T09:23:40Z</time>
      </trkpt>
      <trkpt lat="60.36716" lon="7.50838">
        <ele>1227.26</ele>
        <time>2019-04-04T09:23:45Z</time>
      </trkpt>
      <trkpt lat="60.36721" lon="7.50822">
        <ele>1228.22</ele>
        <time>2019-04-04T09:23:47Z</time>
      </trkpt>
      <trkpt lat="60.3673" lon="7.5076">
        <ele>1228.22</ele>
        <time>2019-04-04T09:23:54Z</time>
      </trkpt>
      <trkpt lat="60.36731" lon="7.50742">
        <ele>1228.22</ele>
        <time>2019-04-04T09:23:56Z</time>
      </trkpt>
      <trkpt lat="60.3674" lon="7.5069">
        <ele>1228.22</ele>
        <time>2019-04-04T09:24:03Z</time>
      </trkpt>
      <trkpt lat="60.36747" lon="7.50664">
        <ele>1230.14</ele>
        <time>2019-04-04T09:24:07Z</time>
      </trkpt>
      <trkpt lat="60.36749" lon="7.50659">
        <ele>1230.14</ele>
        <time>2019-04-04T09:24:08Z</time>
      </trkpt>
      <trkpt lat="60.3675" lon="7.50654">
        <ele>1230.14</ele>
        <time>2019-04-04T09:24:09Z</time>
      </trkpt>
      <trkpt lat="60.3675" lon="7.50646">
        <ele>1230.62</ele>
        <time>2019-04-04T09:24:10Z</time>
      </trkpt>
      <trkpt lat="60.36752" lon="7.50639">
        <ele>1230.62</ele>
        <time>2019-04-04T09:24:11Z</time>
      </trkpt>
      <trkpt lat="60.36754" lon="7.50634">
        <ele>1231.59</ele>
        <time>2019-04-04T09:24:12Z</time>
      </trkpt>
      <trkpt lat="60.36756" lon="7.50629">
        <ele>1232.07</ele>
        <time>2019-04-04T09:24:13Z</time>
      </trkpt>
      <trkpt lat="60.36757" lon="7.50624">
        <ele>1232.07</ele>
        <time>2019-04-04T09:24:14Z</time>
      </trkpt>
      <trkpt lat="60.36758" lon="7.50618">
        <ele>1232.07</ele>
        <time>2019-04-04T09:24:15Z</time>
      </trkpt>
      <trkpt lat="60.3676" lon="7.5061">
        <ele>1232.07</ele>
        <time>2019-04-04T09:24:16Z</time>
      </trkpt>
      <trkpt lat="60.36761" lon="7.50602">
        <ele>1232.07</ele>
        <time>2019-04-04T09:24:17Z</time>
      </trkpt>
      <trkpt lat="60.36764" lon="7.50596">
        <ele>1233.03</ele>
        <time>2019-04-04T09:24:18Z</time>
      </trkpt>
      <trkpt lat="60.36765" lon="7.50593">
        <ele>1233.51</ele>
        <time>2019-04-04T09:24:19Z</time>
      </trkpt>
      <trkpt lat="60.36767" lon="7.50589">
        <ele>1233.51</ele>
        <time>2019-04-04T09:24:20Z</time>
      </trkpt>
      <trkpt lat="60.36768" lon="7.50585">
        <ele>1233.51</ele>
        <time>2019-04-04T09:24:21Z</time>
      </trkpt>
      <trkpt lat="60.36769" lon="7.50581">
        <ele>1233.99</ele>
        <time>2019-04-04T09:24:22Z</time>
      </trkpt>
      <trkpt lat="60.36769" lon="7.50579">
        <ele>1233.99</ele>
        <time>2019-04-04T09:24:23Z</time>
      </trkpt>
      <trkpt lat="60.3677" lon="7.50576">
        <ele>1233.99</ele>
        <time>2019-04-04T09:24:24Z</time>
      </trkpt>
      <trkpt lat="60.36774" lon="7.50555">
        <ele>1234.95</ele>
        <time>2019-04-04T09:24:35Z</time>
      </trkpt>
      <trkpt lat="60.36774" lon="7.50556">
        <ele>1232.07</ele>
        <time>2019-04-04T09:24:36Z</time>
      </trkpt>
      <trkpt lat="60.36775" lon="7.50555">
        <ele>1233.51</ele>
        <time>2019-04-04T09:24:42Z</time>
      </trkpt>
      <trkpt lat="60.36775" lon="7.50555">
        <ele>1234.95</ele>
        <time>2019-04-04T09:24:49Z</time>
      </trkpt>
      <trkpt lat="60.36775" lon="7.50555">
        <ele>1233.03</ele>
        <time>2019-04-04T09:24:52Z</time>
      </trkpt>
      <trkpt lat="60.36775" lon="7.50554">
        <ele>1233.99</ele>
        <time>2019-04-04T09:25:01Z</time>
      </trkpt>
      <trkpt lat="60.36775" lon="7.50554">
        <ele>1234.95</ele>
        <time>2019-04-04T09:25:11Z</time>
      </trkpt>
      <trkpt lat="60.36775" lon="7.50555">
        <ele>1233.51</ele>
        <time>2019-04-04T09:25:13Z</time>
      </trkpt>
      <trkpt lat="60.36774" lon="7.50554">
        <ele>1234.95</ele>
        <time>2019-04-04T09:25:30Z</time>
      </trkpt>
      <trkpt lat="60.36776" lon="7.50555">
        <ele>1231.11</ele>
        <time>2019-04-04T09:25:43Z</time>
      </trkpt>
      <trkpt lat="60.36775" lon="7.50555">
        <ele>1235.91</ele>
        <time>2019-04-04T09:25:44Z</time>
      </trkpt>
      <trkpt lat="60.36775" lon="7.50553">
        <ele>1235.91</ele>
        <time>2019-04-04T09:25:47Z</time>
      </trkpt>
      <trkpt lat="60.36775" lon="7.50554">
        <ele>1231.11</ele>
        <time>2019-04-04T09:25:52Z</time>
      </trkpt>
      <trkpt lat="60.36775" lon="7.50554">
        <ele>1234.47</ele>
        <time>2019-04-04T09:25:54Z</time>
      </trkpt>
      <trkpt lat="60.36775" lon="7.50554">
        <ele>1234.47</ele>
        <time>2019-04-04T09:26:23Z</time>
      </trkpt>
      <trkpt lat="60.36775" lon="7.50555">
        <ele>1234.95</ele>
        <time>2019-04-04T09:26:58Z</time>
      </trkpt>
      <trkpt lat="60.36775" lon="7.50555">
        <ele>1234.95</ele>
        <time>2019-04-04T09:27:23Z</time>
      </trkpt>
      <trkpt lat="60.36775" lon="7.50555">
        <ele>1234.95</ele>
        <time>2019-04-04T09:27:50Z</time>
      </trkpt>
      <trkpt lat="60.36775" lon="7.50555">
        <ele>1234.95</ele>
        <time>2019-04-04T09:28:13Z</time>
      </trkpt>
      <trkpt lat="60.36775" lon="7.50554">
        <ele>1233.99</ele>
        <time>2019-04-04T09:28:48Z</time>
      </trkpt>
      <trkpt lat="60.36775" lon="7.50554">
        <ele>1233.99</ele>
        <time>2019-04-04T09:29:17Z</time>
      </trkpt>
      <trkpt lat="60.36775" lon="7.50554">
        <ele>1233.99</ele>
        <time>2019-04-04T09:29:55Z</time>
      </trkpt>
      <trkpt lat="60.36774" lon="7.50553">
        <ele>1233.99</ele>
        <time>2019-04-04T09:30:26Z</time>
      </trkpt>
      <trkpt lat="60.36774" lon="7.50553">
        <ele>1233.99</ele>
        <time>2019-04-04T09:31:01Z</time>
      </trkpt>
      <trkpt lat="60.36774" lon="7.50553">
        <ele>1236.39</ele>
        <time>2019-04-04T09:31:07Z</time>
      </trkpt>
      <trkpt lat="60.36775" lon="7.50553">
        <ele>1233.03</ele>
        <time>2019-04-04T09:31:08Z</time>
      </trkpt>
      <trkpt lat="60.36774" lon="7.50549">
        <ele>1233.99</ele>
        <time>2019-04-04T09:31:17Z</time>
      </trkpt>
      <trkpt lat="60.36774" lon="7.50547">
        <ele>1233.99</ele>
        <time>2019-04-04T09:31:18Z</time>
      </trkpt>
      <trkpt lat="60.36774" lon="7.50547">
        <ele>1233.99</ele>
        <time>2019-04-04T09:31:26Z</time>
      </trkpt>
      <trkpt lat="60.36774" lon="7.50547">
        <ele>1233.99</ele>
        <time>2019-04-04T09:31:47Z</time>
      </trkpt>
      <trkpt lat="60.36775" lon="7.50548">
        <ele>1234.47</ele>
        <time>2019-04-04T09:31:53Z</time>
      </trkpt>
      <trkpt lat="60.36775" lon="7.50552">
        <ele>1235.43</ele>
        <time>2019-04-04T09:32:00Z</time>
      </trkpt>
      <trkpt lat="60.36776" lon="7.50549">
        <ele>1234.47</ele>
        <time>2019-04-04T09:32:05Z</time>
      </trkpt>
      <trkpt lat="60.36777" lon="7.50539">
        <ele>1234.47</ele>
        <time>2019-04-04T09:32:10Z</time>
      </trkpt>
      <trkpt lat="60.3678" lon="7.5053">
        <ele>1235.43</ele>
        <time>2019-04-04T09:32:16Z</time>
      </trkpt>
      <trkpt lat="60.36781" lon="7.50529">
        <ele>1235.43</ele>
        <time>2019-04-04T09:32:17Z</time>
      </trkpt>
      <trkpt lat="60.36781" lon="7.50524">
        <ele>1235.43</ele>
        <time>2019-04-04T09:32:20Z</time>
      </trkpt>
      <trkpt lat="60.3678" lon="7.50522">
        <ele>1235.43</ele>
        <time>2019-04-04T09:32:21Z</time>
      </trkpt>
      <trkpt lat="60.3678" lon="7.5052">
        <ele>1235.43</ele>
        <time>2019-04-04T09:32:22Z</time>
      </trkpt>
      <trkpt lat="60.36781" lon="7.50518">
        <ele>1235.43</ele>
        <time>2019-04-04T09:32:23Z</time>
      </trkpt>
      <trkpt lat="60.36783" lon="7.50506">
        <ele>1235.43</ele>
        <time>2019-04-04T09:32:31Z</time>
      </trkpt>
      <trkpt lat="60.36783" lon="7.50503">
        <ele>1235.43</ele>
        <time>2019-04-04T09:32:32Z</time>
      </trkpt>
      <trkpt lat="60.36783" lon="7.505">
        <ele>1235.43</ele>
        <time>2019-04-04T09:32:33Z</time>
      </trkpt>
      <trkpt lat="60.36783" lon="7.50498">
        <ele>1235.43</ele>
        <time>2019-04-04T09:32:34Z</time>
      </trkpt>
      <trkpt lat="60.36784" lon="7.50496">
        <ele>1235.43</ele>
        <time>2019-04-04T09:32:35Z</time>
      </trkpt>
      <trkpt lat="60.36784" lon="7.50495">
        <ele>1235.43</ele>
        <time>2019-04-04T09:32:36Z</time>
      </trkpt>
      <trkpt lat="60.36785" lon="7.50492">
        <ele>1236.39</ele>
        <time>2019-04-04T09:32:38Z</time>
      </trkpt>
      <trkpt lat="60.36786" lon="7.5049">
        <ele>1236.39</ele>
        <time>2019-04-04T09:32:39Z</time>
      </trkpt>
      <trkpt lat="60.36789" lon="7.50483">
        <ele>1237.35</ele>
        <time>2019-04-04T09:32:45Z</time>
      </trkpt>
      <trkpt lat="60.3679" lon="7.5048">
        <ele>1237.35</ele>
        <time>2019-04-04T09:32:46Z</time>
      </trkpt>
      <trkpt lat="60.36793" lon="7.5047">
        <ele>1237.83</ele>
        <time>2019-04-04T09:32:53Z</time>
      </trkpt>
      <trkpt lat="60.36793" lon="7.50462">
        <ele>1237.83</ele>
        <time>2019-04-04T09:32:59Z</time>
      </trkpt>
      <trkpt lat="60.36792" lon="7.5046">
        <ele>1237.83</ele>
        <time>2019-04-04T09:33:00Z</time>
      </trkpt>
      <trkpt lat="60.3679" lon="7.50455">
        <ele>1238.32</ele>
        <time>2019-04-04T09:33:09Z</time>
      </trkpt>
      <trkpt lat="60.3679" lon="7.50456">
        <ele>1239.28</ele>
        <time>2019-04-04T09:33:11Z</time>
      </trkpt>
      <trkpt lat="60.36791" lon="7.50454">
        <ele>1238.8</ele>
        <time>2019-04-04T09:33:21Z</time>
      </trkpt>
      <trkpt lat="60.36791" lon="7.50456">
        <ele>1239.28</ele>
        <time>2019-04-04T09:33:44Z</time>
      </trkpt>
      <trkpt lat="60.36791" lon="7.50456">
        <ele>1239.28</ele>
        <time>2019-04-04T09:33:59Z</time>
      </trkpt>
      <trkpt lat="60.36791" lon="7.50456">
        <ele>1230.14</ele>
        <time>2019-04-04T09:34:00Z</time>
      </trkpt>
      <trkpt lat="60.36792" lon="7.50456">
        <ele>1230.14</ele>
        <time>2019-04-04T09:34:01Z</time>
      </trkpt>
      <trkpt lat="60.36792" lon="7.50456">
        <ele>1237.35</ele>
        <time>2019-04-04T09:34:02Z</time>
      </trkpt>
      <trkpt lat="60.36793" lon="7.50456">
        <ele>1237.83</ele>
        <time>2019-04-04T09:34:33Z</time>
      </trkpt>
      <trkpt lat="60.36793" lon="7.50456">
        <ele>1237.83</ele>
        <time>2019-04-04T09:35:09Z</time>
      </trkpt>
      <trkpt lat="60.36793" lon="7.50457">
        <ele>1237.83</ele>
        <time>2019-04-04T09:35:44Z</time>
      </trkpt>
      <trkpt lat="60.36793" lon="7.50456">
        <ele>1237.83</ele>
        <time>2019-04-04T09:36:15Z</time>
      </trkpt>
      <trkpt lat="60.36792" lon="7.50455">
        <ele>1238.32</ele>
        <time>2019-04-04T09:36:46Z</time>
      </trkpt>
      <trkpt lat="60.36792" lon="7.50454">
        <ele>1238.32</ele>
        <time>2019-04-04T09:37:11Z</time>
      </trkpt>
      <trkpt lat="60.3679" lon="7.50454">
        <ele>1238.8</ele>
        <time>2019-04-04T09:37:50Z</time>
      </trkpt>
      <trkpt lat="60.36789" lon="7.50455">
        <ele>1238.8</ele>
        <time>2019-04-04T09:38:20Z</time>
      </trkpt>
      <trkpt lat="60.36789" lon="7.50457">
        <ele>1237.83</ele>
        <time>2019-04-04T09:38:50Z</time>
      </trkpt>
      <trkpt lat="60.36789" lon="7.50456">
        <ele>1237.83</ele>
        <time>2019-04-04T09:39:22Z</time>
      </trkpt>
      <trkpt lat="60.3679" lon="7.50456">
        <ele>1237.83</ele>
        <time>2019-04-04T09:39:51Z</time>
      </trkpt>
      <trkpt lat="60.36791" lon="7.50456">
        <ele>1240.72</ele>
        <time>2019-04-04T09:40:14Z</time>
      </trkpt>
      <trkpt lat="60.36791" lon="7.50457">
        <ele>1241.2</ele>
        <time>2019-04-04T09:40:28Z</time>
      </trkpt>
      <trkpt lat="60.36789" lon="7.50457">
        <ele>1241.68</ele>
        <time>2019-04-04T09:40:41Z</time>
      </trkpt>
    </trkseg>
  </trk>
</gpx>